<?xml version="1.0" encoding="UTF-8" standalone="no" ?>
<gpx xmlns="http://www.topografix.com/GPX/1/1" xmlns:xsi="http://www.w3.org/2001/XMLSchema-instance" xsi:schemaLocation="http://www.topografix.com/GPX/1/1 http://www.topografix.com/GPX/1/1/gpx.xsd" version="1.1" creator="VisuGPX - https://www.visugpx.com">
  <metadata>
    <name>Tête de Bostan</name>
    <desc><![CDATA[GPS démarré un poil tard.
Seulement deux déchaussages sur le chemin.
Montée entre refuge et crête au pif: ça passe bien presque partout quand on a la visibilité comme ce jour. Idem pour la descente (neige très molle avec trous autour des rochers qui émergent).]]></desc>
  </metadata>
  <trk>
    <name><![CDATA[27 Mar 2022]]></name>
    <desc><![CDATA[comment ...]]></desc>
    <extensions>
      <line xmlns="http://www.topografix.com/GPX/gpx_style/0/2">
        <color>0000FF</color>
        <width>4</width>
      </line>
    </extensions>
    <trkseg>
      <trkpt lat="46.11377" lon="6.75302">
        <ele>1153</ele>
        <time>2022-03-27T08:31:18Z</time>
      </trkpt>
      <trkpt lat="46.11376" lon="6.75322">
        <ele>1146</ele>
        <time>2022-03-27T08:31:37Z</time>
      </trkpt>
      <trkpt lat="46.11386" lon="6.75338">
        <ele>1143</ele>
        <time>2022-03-27T08:32:00Z</time>
      </trkpt>
      <trkpt lat="46.11395" lon="6.75358">
        <ele>1143</ele>
        <time>2022-03-27T08:32:10Z</time>
      </trkpt>
      <trkpt lat="46.11405" lon="6.75339">
        <ele>1146</ele>
        <time>2022-03-27T08:32:31Z</time>
      </trkpt>
      <trkpt lat="46.1141" lon="6.75336">
        <ele>1203</ele>
        <time>2022-03-27T08:35:34Z</time>
      </trkpt>
      <trkpt lat="46.11423" lon="6.75331">
        <ele>1195</ele>
        <time>2022-03-27T08:36:13Z</time>
      </trkpt>
      <trkpt lat="46.11436" lon="6.75321">
        <ele>1194</ele>
        <time>2022-03-27T08:36:21Z</time>
      </trkpt>
      <trkpt lat="46.11449" lon="6.75317">
        <ele>1194</ele>
        <time>2022-03-27T08:36:36Z</time>
      </trkpt>
      <trkpt lat="46.11459" lon="6.75323">
        <ele>1196</ele>
        <time>2022-03-27T08:36:53Z</time>
      </trkpt>
      <trkpt lat="46.11475" lon="6.7535">
        <ele>1199</ele>
        <time>2022-03-27T08:37:19Z</time>
      </trkpt>
      <trkpt lat="46.11482" lon="6.75363">
        <ele>1197</ele>
        <time>2022-03-27T08:37:39Z</time>
      </trkpt>
      <trkpt lat="46.11493" lon="6.75382">
        <ele>1184</ele>
        <time>2022-03-27T08:38:17Z</time>
      </trkpt>
      <trkpt lat="46.11504" lon="6.75383">
        <ele>1182</ele>
        <time>2022-03-27T08:38:28Z</time>
      </trkpt>
      <trkpt lat="46.11514" lon="6.75394">
        <ele>1181</ele>
        <time>2022-03-27T08:38:39Z</time>
      </trkpt>
      <trkpt lat="46.11518" lon="6.7541">
        <ele>1182</ele>
        <time>2022-03-27T08:38:52Z</time>
      </trkpt>
      <trkpt lat="46.11528" lon="6.75413">
        <ele>1185</ele>
        <time>2022-03-27T08:39:12Z</time>
      </trkpt>
      <trkpt lat="46.11533" lon="6.75427">
        <ele>1186</ele>
        <time>2022-03-27T08:39:19Z</time>
      </trkpt>
      <trkpt lat="46.11542" lon="6.75442">
        <ele>1188</ele>
        <time>2022-03-27T08:39:32Z</time>
      </trkpt>
      <trkpt lat="46.11551" lon="6.75453">
        <ele>1187</ele>
        <time>2022-03-27T08:39:49Z</time>
      </trkpt>
      <trkpt lat="46.11553" lon="6.7547">
        <ele>1188</ele>
        <time>2022-03-27T08:40:04Z</time>
      </trkpt>
      <trkpt lat="46.11553" lon="6.75486">
        <ele>1190</ele>
        <time>2022-03-27T08:40:12Z</time>
      </trkpt>
      <trkpt lat="46.11551" lon="6.75502">
        <ele>1195</ele>
        <time>2022-03-27T08:40:28Z</time>
      </trkpt>
      <trkpt lat="46.11554" lon="6.75518">
        <ele>1201</ele>
        <time>2022-03-27T08:41:11Z</time>
      </trkpt>
      <trkpt lat="46.11552" lon="6.75528">
        <ele>1202</ele>
        <time>2022-03-27T08:41:15Z</time>
      </trkpt>
      <trkpt lat="46.11552" lon="6.75539">
        <ele>1203</ele>
        <time>2022-03-27T08:41:21Z</time>
      </trkpt>
      <trkpt lat="46.11557" lon="6.75543">
        <ele>1203</ele>
        <time>2022-03-27T08:42:07Z</time>
      </trkpt>
      <trkpt lat="46.11561" lon="6.75558">
        <ele>1193</ele>
        <time>2022-03-27T08:42:57Z</time>
      </trkpt>
      <trkpt lat="46.11558" lon="6.75574">
        <ele>1191</ele>
        <time>2022-03-27T08:43:24Z</time>
      </trkpt>
      <trkpt lat="46.11553" lon="6.75596">
        <ele>1191</ele>
        <time>2022-03-27T08:43:37Z</time>
      </trkpt>
      <trkpt lat="46.11561" lon="6.7561">
        <ele>1191</ele>
        <time>2022-03-27T08:43:49Z</time>
      </trkpt>
      <trkpt lat="46.11569" lon="6.75629">
        <ele>1193</ele>
        <time>2022-03-27T08:44:03Z</time>
      </trkpt>
      <trkpt lat="46.11582" lon="6.75645">
        <ele>1196</ele>
        <time>2022-03-27T08:44:24Z</time>
      </trkpt>
      <trkpt lat="46.1159" lon="6.75665">
        <ele>1199</ele>
        <time>2022-03-27T08:44:56Z</time>
      </trkpt>
      <trkpt lat="46.11588" lon="6.75688">
        <ele>1200</ele>
        <time>2022-03-27T08:45:00Z</time>
      </trkpt>
      <trkpt lat="46.11599" lon="6.75705">
        <ele>1203</ele>
        <time>2022-03-27T08:45:20Z</time>
      </trkpt>
      <trkpt lat="46.11614" lon="6.75713">
        <ele>1204</ele>
        <time>2022-03-27T08:45:41Z</time>
      </trkpt>
      <trkpt lat="46.11629" lon="6.75707">
        <ele>1206</ele>
        <time>2022-03-27T08:46:00Z</time>
      </trkpt>
      <trkpt lat="46.11636" lon="6.75726">
        <ele>1211</ele>
        <time>2022-03-27T08:46:19Z</time>
      </trkpt>
      <trkpt lat="46.11651" lon="6.75725">
        <ele>1215</ele>
        <time>2022-03-27T08:46:31Z</time>
      </trkpt>
      <trkpt lat="46.11659" lon="6.75732">
        <ele>1221</ele>
        <time>2022-03-27T08:46:57Z</time>
      </trkpt>
      <trkpt lat="46.11671" lon="6.7574">
        <ele>1224</ele>
        <time>2022-03-27T08:47:25Z</time>
      </trkpt>
      <trkpt lat="46.11679" lon="6.75728">
        <ele>1224</ele>
        <time>2022-03-27T08:47:38Z</time>
      </trkpt>
      <trkpt lat="46.11688" lon="6.75719">
        <ele>1227</ele>
        <time>2022-03-27T08:48:14Z</time>
      </trkpt>
      <trkpt lat="46.11698" lon="6.7571">
        <ele>1229</ele>
        <time>2022-03-27T08:48:21Z</time>
      </trkpt>
      <trkpt lat="46.11706" lon="6.75698">
        <ele>1232</ele>
        <time>2022-03-27T08:48:30Z</time>
      </trkpt>
      <trkpt lat="46.1171" lon="6.75682">
        <ele>1234</ele>
        <time>2022-03-27T08:48:58Z</time>
      </trkpt>
      <trkpt lat="46.11716" lon="6.75666">
        <ele>1234</ele>
        <time>2022-03-27T08:49:10Z</time>
      </trkpt>
      <trkpt lat="46.11731" lon="6.7563">
        <ele>1235</ele>
        <time>2022-03-27T08:50:06Z</time>
      </trkpt>
      <trkpt lat="46.11738" lon="6.75616">
        <ele>1236</ele>
        <time>2022-03-27T08:50:17Z</time>
      </trkpt>
      <trkpt lat="46.11747" lon="6.75605">
        <ele>1239</ele>
        <time>2022-03-27T08:50:25Z</time>
      </trkpt>
      <trkpt lat="46.11759" lon="6.75594">
        <ele>1243</ele>
        <time>2022-03-27T08:51:14Z</time>
      </trkpt>
      <trkpt lat="46.1177" lon="6.75594">
        <ele>1245</ele>
        <time>2022-03-27T08:51:28Z</time>
      </trkpt>
      <trkpt lat="46.11775" lon="6.75581">
        <ele>1247</ele>
        <time>2022-03-27T08:51:46Z</time>
      </trkpt>
      <trkpt lat="46.11779" lon="6.75552">
        <ele>1251</ele>
        <time>2022-03-27T08:51:59Z</time>
      </trkpt>
      <trkpt lat="46.11785" lon="6.75533">
        <ele>1252</ele>
        <time>2022-03-27T08:52:03Z</time>
      </trkpt>
      <trkpt lat="46.11779" lon="6.75516">
        <ele>1255</ele>
        <time>2022-03-27T08:52:32Z</time>
      </trkpt>
      <trkpt lat="46.11774" lon="6.75493">
        <ele>1256</ele>
        <time>2022-03-27T08:52:57Z</time>
      </trkpt>
      <trkpt lat="46.11773" lon="6.75477">
        <ele>1258</ele>
        <time>2022-03-27T08:53:12Z</time>
      </trkpt>
      <trkpt lat="46.1178" lon="6.75464">
        <ele>1259</ele>
        <time>2022-03-27T08:53:22Z</time>
      </trkpt>
      <trkpt lat="46.11789" lon="6.75479">
        <ele>1260</ele>
        <time>2022-03-27T08:53:47Z</time>
      </trkpt>
      <trkpt lat="46.11779" lon="6.75485">
        <ele>1262</ele>
        <time>2022-03-27T08:57:15Z</time>
      </trkpt>
      <trkpt lat="46.11792" lon="6.7549">
        <ele>1264</ele>
        <time>2022-03-27T08:58:33Z</time>
      </trkpt>
      <trkpt lat="46.11795" lon="6.75507">
        <ele>1264</ele>
        <time>2022-03-27T08:58:49Z</time>
      </trkpt>
      <trkpt lat="46.11798" lon="6.75525">
        <ele>1266</ele>
        <time>2022-03-27T08:59:01Z</time>
      </trkpt>
      <trkpt lat="46.11804" lon="6.75538">
        <ele>1268</ele>
        <time>2022-03-27T08:59:17Z</time>
      </trkpt>
      <trkpt lat="46.11805" lon="6.75562">
        <ele>1271</ele>
        <time>2022-03-27T08:59:52Z</time>
      </trkpt>
      <trkpt lat="46.11817" lon="6.75576">
        <ele>1273</ele>
        <time>2022-03-27T09:00:12Z</time>
      </trkpt>
      <trkpt lat="46.11825" lon="6.75598">
        <ele>1275</ele>
        <time>2022-03-27T09:00:33Z</time>
      </trkpt>
      <trkpt lat="46.11834" lon="6.75616">
        <ele>1276</ele>
        <time>2022-03-27T09:00:52Z</time>
      </trkpt>
      <trkpt lat="46.11831" lon="6.75644">
        <ele>1277</ele>
        <time>2022-03-27T09:01:04Z</time>
      </trkpt>
      <trkpt lat="46.11834" lon="6.75667">
        <ele>1280</ele>
        <time>2022-03-27T09:01:25Z</time>
      </trkpt>
      <trkpt lat="46.11822" lon="6.75696">
        <ele>1282</ele>
        <time>2022-03-27T09:01:40Z</time>
      </trkpt>
      <trkpt lat="46.11814" lon="6.75715">
        <ele>1285</ele>
        <time>2022-03-27T09:01:54Z</time>
      </trkpt>
      <trkpt lat="46.1182" lon="6.75737">
        <ele>1289</ele>
        <time>2022-03-27T09:02:27Z</time>
      </trkpt>
      <trkpt lat="46.11812" lon="6.75789">
        <ele>1292</ele>
        <time>2022-03-27T09:03:07Z</time>
      </trkpt>
      <trkpt lat="46.11809" lon="6.75809">
        <ele>1293</ele>
        <time>2022-03-27T09:03:26Z</time>
      </trkpt>
      <trkpt lat="46.11821" lon="6.75824">
        <ele>1294</ele>
        <time>2022-03-27T09:03:40Z</time>
      </trkpt>
      <trkpt lat="46.11835" lon="6.7582">
        <ele>1301</ele>
        <time>2022-03-27T09:04:03Z</time>
      </trkpt>
      <trkpt lat="46.11847" lon="6.75803">
        <ele>1301</ele>
        <time>2022-03-27T09:04:15Z</time>
      </trkpt>
      <trkpt lat="46.11843" lon="6.75782">
        <ele>1301</ele>
        <time>2022-03-27T09:04:26Z</time>
      </trkpt>
      <trkpt lat="46.11847" lon="6.75761">
        <ele>1301</ele>
        <time>2022-03-27T09:04:41Z</time>
      </trkpt>
      <trkpt lat="46.11856" lon="6.75745">
        <ele>1299</ele>
        <time>2022-03-27T09:05:29Z</time>
      </trkpt>
      <trkpt lat="46.11863" lon="6.75724">
        <ele>1298</ele>
        <time>2022-03-27T09:05:38Z</time>
      </trkpt>
      <trkpt lat="46.11874" lon="6.75682">
        <ele>1297</ele>
        <time>2022-03-27T09:06:01Z</time>
      </trkpt>
      <trkpt lat="46.11876" lon="6.75661">
        <ele>1305</ele>
        <time>2022-03-27T09:06:22Z</time>
      </trkpt>
      <trkpt lat="46.11886" lon="6.7566">
        <ele>1320</ele>
        <time>2022-03-27T09:07:13Z</time>
      </trkpt>
      <trkpt lat="46.11889" lon="6.75682">
        <ele>1323</ele>
        <time>2022-03-27T09:07:30Z</time>
      </trkpt>
      <trkpt lat="46.11885" lon="6.75708">
        <ele>1325</ele>
        <time>2022-03-27T09:07:47Z</time>
      </trkpt>
      <trkpt lat="46.11881" lon="6.75729">
        <ele>1330</ele>
        <time>2022-03-27T09:08:06Z</time>
      </trkpt>
      <trkpt lat="46.11888" lon="6.75741">
        <ele>1332</ele>
        <time>2022-03-27T09:08:27Z</time>
      </trkpt>
      <trkpt lat="46.11898" lon="6.75747">
        <ele>1341</ele>
        <time>2022-03-27T09:08:36Z</time>
      </trkpt>
      <trkpt lat="46.11908" lon="6.75764">
        <ele>1342</ele>
        <time>2022-03-27T09:08:55Z</time>
      </trkpt>
      <trkpt lat="46.11909" lon="6.75786">
        <ele>1343</ele>
        <time>2022-03-27T09:09:23Z</time>
      </trkpt>
      <trkpt lat="46.1191" lon="6.75819">
        <ele>1345</ele>
        <time>2022-03-27T09:09:39Z</time>
      </trkpt>
      <trkpt lat="46.11904" lon="6.75838">
        <ele>1345</ele>
        <time>2022-03-27T09:09:47Z</time>
      </trkpt>
      <trkpt lat="46.11907" lon="6.75859">
        <ele>1344</ele>
        <time>2022-03-27T09:10:01Z</time>
      </trkpt>
      <trkpt lat="46.11902" lon="6.75882">
        <ele>1342</ele>
        <time>2022-03-27T09:10:12Z</time>
      </trkpt>
      <trkpt lat="46.11916" lon="6.75896">
        <ele>1333</ele>
        <time>2022-03-27T09:10:59Z</time>
      </trkpt>
      <trkpt lat="46.1192" lon="6.7591">
        <ele>1325</ele>
        <time>2022-03-27T09:11:24Z</time>
      </trkpt>
      <trkpt lat="46.11921" lon="6.75936">
        <ele>1329</ele>
        <time>2022-03-27T09:11:59Z</time>
      </trkpt>
      <trkpt lat="46.1192" lon="6.75954">
        <ele>1335</ele>
        <time>2022-03-27T09:12:30Z</time>
      </trkpt>
      <trkpt lat="46.11911" lon="6.75954">
        <ele>1347</ele>
        <time>2022-03-27T09:13:27Z</time>
      </trkpt>
      <trkpt lat="46.1191" lon="6.75971">
        <ele>1358</ele>
        <time>2022-03-27T09:15:23Z</time>
      </trkpt>
      <trkpt lat="46.11909" lon="6.7599">
        <ele>1367</ele>
        <time>2022-03-27T09:15:44Z</time>
      </trkpt>
      <trkpt lat="46.11904" lon="6.76004">
        <ele>1374</ele>
        <time>2022-03-27T09:16:06Z</time>
      </trkpt>
      <trkpt lat="46.119" lon="6.76014">
        <ele>1376</ele>
        <time>2022-03-27T09:16:13Z</time>
      </trkpt>
      <trkpt lat="46.11902" lon="6.76025">
        <ele>1377</ele>
        <time>2022-03-27T09:16:27Z</time>
      </trkpt>
      <trkpt lat="46.11897" lon="6.7604">
        <ele>1378</ele>
        <time>2022-03-27T09:16:40Z</time>
      </trkpt>
      <trkpt lat="46.11897" lon="6.76056">
        <ele>1381</ele>
        <time>2022-03-27T09:16:54Z</time>
      </trkpt>
      <trkpt lat="46.11896" lon="6.76072">
        <ele>1382</ele>
        <time>2022-03-27T09:17:10Z</time>
      </trkpt>
      <trkpt lat="46.11891" lon="6.76088">
        <ele>1384</ele>
        <time>2022-03-27T09:17:25Z</time>
      </trkpt>
      <trkpt lat="46.11889" lon="6.76103">
        <ele>1385</ele>
        <time>2022-03-27T09:17:39Z</time>
      </trkpt>
      <trkpt lat="46.11891" lon="6.76121">
        <ele>1388</ele>
        <time>2022-03-27T09:18:05Z</time>
      </trkpt>
      <trkpt lat="46.11885" lon="6.76133">
        <ele>1389</ele>
        <time>2022-03-27T09:18:13Z</time>
      </trkpt>
      <trkpt lat="46.11882" lon="6.76149">
        <ele>1392</ele>
        <time>2022-03-27T09:18:25Z</time>
      </trkpt>
      <trkpt lat="46.11876" lon="6.76164">
        <ele>1393</ele>
        <time>2022-03-27T09:18:45Z</time>
      </trkpt>
      <trkpt lat="46.11875" lon="6.76201">
        <ele>1397</ele>
        <time>2022-03-27T09:19:24Z</time>
      </trkpt>
      <trkpt lat="46.11874" lon="6.76217">
        <ele>1399</ele>
        <time>2022-03-27T09:19:41Z</time>
      </trkpt>
      <trkpt lat="46.11873" lon="6.76233">
        <ele>1400</ele>
        <time>2022-03-27T09:19:54Z</time>
      </trkpt>
      <trkpt lat="46.11872" lon="6.7625">
        <ele>1401</ele>
        <time>2022-03-27T09:20:12Z</time>
      </trkpt>
      <trkpt lat="46.11867" lon="6.76282">
        <ele>1402</ele>
        <time>2022-03-27T09:20:46Z</time>
      </trkpt>
      <trkpt lat="46.11865" lon="6.76298">
        <ele>1404</ele>
        <time>2022-03-27T09:20:56Z</time>
      </trkpt>
      <trkpt lat="46.11853" lon="6.76306">
        <ele>1406</ele>
        <time>2022-03-27T09:21:22Z</time>
      </trkpt>
      <trkpt lat="46.11844" lon="6.76314">
        <ele>1407</ele>
        <time>2022-03-27T09:21:36Z</time>
      </trkpt>
      <trkpt lat="46.11835" lon="6.76334">
        <ele>1408</ele>
        <time>2022-03-27T09:21:58Z</time>
      </trkpt>
      <trkpt lat="46.11831" lon="6.76349">
        <ele>1415</ele>
        <time>2022-03-27T09:22:18Z</time>
      </trkpt>
      <trkpt lat="46.11817" lon="6.76359">
        <ele>1418</ele>
        <time>2022-03-27T09:22:34Z</time>
      </trkpt>
      <trkpt lat="46.11804" lon="6.76364">
        <ele>1423</ele>
        <time>2022-03-27T09:22:41Z</time>
      </trkpt>
      <trkpt lat="46.11795" lon="6.76372">
        <ele>1425</ele>
        <time>2022-03-27T09:22:55Z</time>
      </trkpt>
      <trkpt lat="46.11783" lon="6.76376">
        <ele>1434</ele>
        <time>2022-03-27T09:23:14Z</time>
      </trkpt>
      <trkpt lat="46.11772" lon="6.76376">
        <ele>1437</ele>
        <time>2022-03-27T09:23:34Z</time>
      </trkpt>
      <trkpt lat="46.11751" lon="6.76369">
        <ele>1442</ele>
        <time>2022-03-27T09:24:17Z</time>
      </trkpt>
      <trkpt lat="46.11732" lon="6.7636">
        <ele>1442</ele>
        <time>2022-03-27T09:24:47Z</time>
      </trkpt>
      <trkpt lat="46.11721" lon="6.76355">
        <ele>1443</ele>
        <time>2022-03-27T09:25:00Z</time>
      </trkpt>
      <trkpt lat="46.11712" lon="6.76363">
        <ele>1447</ele>
        <time>2022-03-27T09:25:18Z</time>
      </trkpt>
      <trkpt lat="46.11713" lon="6.7638">
        <ele>1448</ele>
        <time>2022-03-27T09:25:35Z</time>
      </trkpt>
      <trkpt lat="46.11718" lon="6.76391">
        <ele>1451</ele>
        <time>2022-03-27T09:25:43Z</time>
      </trkpt>
      <trkpt lat="46.11725" lon="6.76397">
        <ele>1452</ele>
        <time>2022-03-27T09:25:57Z</time>
      </trkpt>
      <trkpt lat="46.11728" lon="6.76417">
        <ele>1452</ele>
        <time>2022-03-27T09:26:15Z</time>
      </trkpt>
      <trkpt lat="46.11735" lon="6.7643">
        <ele>1453</ele>
        <time>2022-03-27T09:26:34Z</time>
      </trkpt>
      <trkpt lat="46.11744" lon="6.76446">
        <ele>1455</ele>
        <time>2022-03-27T09:26:44Z</time>
      </trkpt>
      <trkpt lat="46.11754" lon="6.76455">
        <ele>1458</ele>
        <time>2022-03-27T09:27:03Z</time>
      </trkpt>
      <trkpt lat="46.11756" lon="6.7647">
        <ele>1461</ele>
        <time>2022-03-27T09:27:20Z</time>
      </trkpt>
      <trkpt lat="46.11759" lon="6.76488">
        <ele>1463</ele>
        <time>2022-03-27T09:27:41Z</time>
      </trkpt>
      <trkpt lat="46.1176" lon="6.76509">
        <ele>1468</ele>
        <time>2022-03-27T09:28:07Z</time>
      </trkpt>
      <trkpt lat="46.11755" lon="6.76525">
        <ele>1468</ele>
        <time>2022-03-27T09:28:18Z</time>
      </trkpt>
      <trkpt lat="46.11755" lon="6.76535">
        <ele>1470</ele>
        <time>2022-03-27T09:28:31Z</time>
      </trkpt>
      <trkpt lat="46.11757" lon="6.76548">
        <ele>1471</ele>
        <time>2022-03-27T09:28:44Z</time>
      </trkpt>
      <trkpt lat="46.11762" lon="6.76568">
        <ele>1473</ele>
        <time>2022-03-27T09:29:08Z</time>
      </trkpt>
      <trkpt lat="46.11766" lon="6.76577">
        <ele>1474</ele>
        <time>2022-03-27T09:29:23Z</time>
      </trkpt>
      <trkpt lat="46.11765" lon="6.76588">
        <ele>1474</ele>
        <time>2022-03-27T09:29:38Z</time>
      </trkpt>
      <trkpt lat="46.11763" lon="6.76598">
        <ele>1475</ele>
        <time>2022-03-27T09:29:44Z</time>
      </trkpt>
      <trkpt lat="46.1176" lon="6.76609">
        <ele>1476</ele>
        <time>2022-03-27T09:29:51Z</time>
      </trkpt>
      <trkpt lat="46.11759" lon="6.76619">
        <ele>1478</ele>
        <time>2022-03-27T09:30:04Z</time>
      </trkpt>
      <trkpt lat="46.11757" lon="6.76631">
        <ele>1480</ele>
        <time>2022-03-27T09:30:14Z</time>
      </trkpt>
      <trkpt lat="46.11759" lon="6.76642">
        <ele>1481</ele>
        <time>2022-03-27T09:30:22Z</time>
      </trkpt>
      <trkpt lat="46.11765" lon="6.76649">
        <ele>1481</ele>
        <time>2022-03-27T09:30:32Z</time>
      </trkpt>
      <trkpt lat="46.11769" lon="6.76657">
        <ele>1482</ele>
        <time>2022-03-27T09:30:39Z</time>
      </trkpt>
      <trkpt lat="46.11772" lon="6.76667">
        <ele>1484</ele>
        <time>2022-03-27T09:30:55Z</time>
      </trkpt>
      <trkpt lat="46.11776" lon="6.76677">
        <ele>1486</ele>
        <time>2022-03-27T09:31:06Z</time>
      </trkpt>
      <trkpt lat="46.11781" lon="6.76685">
        <ele>1486</ele>
        <time>2022-03-27T09:31:15Z</time>
      </trkpt>
      <trkpt lat="46.11786" lon="6.76693">
        <ele>1487</ele>
        <time>2022-03-27T09:31:29Z</time>
      </trkpt>
      <trkpt lat="46.11791" lon="6.76702">
        <ele>1487</ele>
        <time>2022-03-27T09:31:41Z</time>
      </trkpt>
      <trkpt lat="46.11798" lon="6.76722">
        <ele>1488</ele>
        <time>2022-03-27T09:31:59Z</time>
      </trkpt>
      <trkpt lat="46.11798" lon="6.76733">
        <ele>1490</ele>
        <time>2022-03-27T09:32:07Z</time>
      </trkpt>
      <trkpt lat="46.11804" lon="6.76741">
        <ele>1490</ele>
        <time>2022-03-27T09:32:17Z</time>
      </trkpt>
      <trkpt lat="46.1181" lon="6.76748">
        <ele>1492</ele>
        <time>2022-03-27T09:32:27Z</time>
      </trkpt>
      <trkpt lat="46.11818" lon="6.76753">
        <ele>1493</ele>
        <time>2022-03-27T09:32:47Z</time>
      </trkpt>
      <trkpt lat="46.11816" lon="6.76769">
        <ele>1496</ele>
        <time>2022-03-27T09:33:07Z</time>
      </trkpt>
      <trkpt lat="46.11814" lon="6.76779">
        <ele>1498</ele>
        <time>2022-03-27T09:33:19Z</time>
      </trkpt>
      <trkpt lat="46.11815" lon="6.76789">
        <ele>1499</ele>
        <time>2022-03-27T09:33:30Z</time>
      </trkpt>
      <trkpt lat="46.11817" lon="6.76799">
        <ele>1501</ele>
        <time>2022-03-27T09:33:42Z</time>
      </trkpt>
      <trkpt lat="46.11817" lon="6.7681">
        <ele>1502</ele>
        <time>2022-03-27T09:33:58Z</time>
      </trkpt>
      <trkpt lat="46.11816" lon="6.76819">
        <ele>1505</ele>
        <time>2022-03-27T09:34:09Z</time>
      </trkpt>
      <trkpt lat="46.1182" lon="6.7684">
        <ele>1508</ele>
        <time>2022-03-27T09:34:35Z</time>
      </trkpt>
      <trkpt lat="46.11822" lon="6.7685">
        <ele>1508</ele>
        <time>2022-03-27T09:34:51Z</time>
      </trkpt>
      <trkpt lat="46.11826" lon="6.76859">
        <ele>1511</ele>
        <time>2022-03-27T09:35:04Z</time>
      </trkpt>
      <trkpt lat="46.11831" lon="6.76867">
        <ele>1512</ele>
        <time>2022-03-27T09:35:16Z</time>
      </trkpt>
      <trkpt lat="46.11831" lon="6.76878">
        <ele>1516</ele>
        <time>2022-03-27T09:35:32Z</time>
      </trkpt>
      <trkpt lat="46.11824" lon="6.76898">
        <ele>1518</ele>
        <time>2022-03-27T09:35:52Z</time>
      </trkpt>
      <trkpt lat="46.11829" lon="6.76906">
        <ele>1520</ele>
        <time>2022-03-27T09:36:15Z</time>
      </trkpt>
      <trkpt lat="46.11837" lon="6.76905">
        <ele>1520</ele>
        <time>2022-03-27T09:36:23Z</time>
      </trkpt>
      <trkpt lat="46.11846" lon="6.76901">
        <ele>1525</ele>
        <time>2022-03-27T09:36:46Z</time>
      </trkpt>
      <trkpt lat="46.11854" lon="6.76899">
        <ele>1529</ele>
        <time>2022-03-27T09:36:57Z</time>
      </trkpt>
      <trkpt lat="46.11862" lon="6.76895">
        <ele>1530</ele>
        <time>2022-03-27T09:37:10Z</time>
      </trkpt>
      <trkpt lat="46.11871" lon="6.76872">
        <ele>1532</ele>
        <time>2022-03-27T09:37:43Z</time>
      </trkpt>
      <trkpt lat="46.11878" lon="6.76855">
        <ele>1534</ele>
        <time>2022-03-27T09:38:00Z</time>
      </trkpt>
      <trkpt lat="46.1188" lon="6.76848">
        <ele>1536</ele>
        <time>2022-03-27T09:38:13Z</time>
      </trkpt>
      <trkpt lat="46.11884" lon="6.76838">
        <ele>1536</ele>
        <time>2022-03-27T09:38:21Z</time>
      </trkpt>
      <trkpt lat="46.1189" lon="6.76822">
        <ele>1538</ele>
        <time>2022-03-27T09:38:39Z</time>
      </trkpt>
      <trkpt lat="46.11892" lon="6.76813">
        <ele>1539</ele>
        <time>2022-03-27T09:38:47Z</time>
      </trkpt>
      <trkpt lat="46.11899" lon="6.76812">
        <ele>1541</ele>
        <time>2022-03-27T09:39:37Z</time>
      </trkpt>
      <trkpt lat="46.11911" lon="6.76812">
        <ele>1544</ele>
        <time>2022-03-27T09:39:54Z</time>
      </trkpt>
      <trkpt lat="46.11921" lon="6.76819">
        <ele>1547</ele>
        <time>2022-03-27T09:40:08Z</time>
      </trkpt>
      <trkpt lat="46.11926" lon="6.76826">
        <ele>1550</ele>
        <time>2022-03-27T09:40:22Z</time>
      </trkpt>
      <trkpt lat="46.11935" lon="6.76848">
        <ele>1551</ele>
        <time>2022-03-27T09:40:46Z</time>
      </trkpt>
      <trkpt lat="46.11938" lon="6.7686">
        <ele>1553</ele>
        <time>2022-03-27T09:40:57Z</time>
      </trkpt>
      <trkpt lat="46.11941" lon="6.7687">
        <ele>1553</ele>
        <time>2022-03-27T09:41:13Z</time>
      </trkpt>
      <trkpt lat="46.1195" lon="6.76889">
        <ele>1554</ele>
        <time>2022-03-27T09:41:38Z</time>
      </trkpt>
      <trkpt lat="46.11959" lon="6.76907">
        <ele>1558</ele>
        <time>2022-03-27T09:41:59Z</time>
      </trkpt>
      <trkpt lat="46.1196" lon="6.76918">
        <ele>1561</ele>
        <time>2022-03-27T09:42:09Z</time>
      </trkpt>
      <trkpt lat="46.11953" lon="6.76922">
        <ele>1561</ele>
        <time>2022-03-27T09:42:18Z</time>
      </trkpt>
      <trkpt lat="46.11945" lon="6.76925">
        <ele>1562</ele>
        <time>2022-03-27T09:42:30Z</time>
      </trkpt>
      <trkpt lat="46.11938" lon="6.76928">
        <ele>1562</ele>
        <time>2022-03-27T09:42:43Z</time>
      </trkpt>
      <trkpt lat="46.11937" lon="6.76939">
        <ele>1562</ele>
        <time>2022-03-27T09:42:56Z</time>
      </trkpt>
      <trkpt lat="46.1194" lon="6.76949">
        <ele>1564</ele>
        <time>2022-03-27T09:43:09Z</time>
      </trkpt>
      <trkpt lat="46.11941" lon="6.76963">
        <ele>1564</ele>
        <time>2022-03-27T09:43:15Z</time>
      </trkpt>
      <trkpt lat="46.11943" lon="6.76974">
        <ele>1565</ele>
        <time>2022-03-27T09:43:27Z</time>
      </trkpt>
      <trkpt lat="46.11941" lon="6.76989">
        <ele>1567</ele>
        <time>2022-03-27T09:43:42Z</time>
      </trkpt>
      <trkpt lat="46.11938" lon="6.77004">
        <ele>1570</ele>
        <time>2022-03-27T09:43:53Z</time>
      </trkpt>
      <trkpt lat="46.1194" lon="6.77021">
        <ele>1571</ele>
        <time>2022-03-27T09:44:08Z</time>
      </trkpt>
      <trkpt lat="46.1194" lon="6.77036">
        <ele>1572</ele>
        <time>2022-03-27T09:44:27Z</time>
      </trkpt>
      <trkpt lat="46.1194" lon="6.77075">
        <ele>1574</ele>
        <time>2022-03-27T09:45:01Z</time>
      </trkpt>
      <trkpt lat="46.11939" lon="6.77086">
        <ele>1575</ele>
        <time>2022-03-27T09:45:04Z</time>
      </trkpt>
      <trkpt lat="46.11938" lon="6.77099">
        <ele>1576</ele>
        <time>2022-03-27T09:45:13Z</time>
      </trkpt>
      <trkpt lat="46.11941" lon="6.77111">
        <ele>1581</ele>
        <time>2022-03-27T09:52:58Z</time>
      </trkpt>
      <trkpt lat="46.11946" lon="6.77121">
        <ele>1581</ele>
        <time>2022-03-27T09:53:14Z</time>
      </trkpt>
      <trkpt lat="46.11953" lon="6.77116">
        <ele>1585</ele>
        <time>2022-03-27T09:53:26Z</time>
      </trkpt>
      <trkpt lat="46.11964" lon="6.77101">
        <ele>1586</ele>
        <time>2022-03-27T09:53:43Z</time>
      </trkpt>
      <trkpt lat="46.1197" lon="6.77092">
        <ele>1587</ele>
        <time>2022-03-27T09:53:54Z</time>
      </trkpt>
      <trkpt lat="46.11973" lon="6.77083">
        <ele>1587</ele>
        <time>2022-03-27T09:54:10Z</time>
      </trkpt>
      <trkpt lat="46.11976" lon="6.77072">
        <ele>1588</ele>
        <time>2022-03-27T09:54:20Z</time>
      </trkpt>
      <trkpt lat="46.1198" lon="6.77047">
        <ele>1589</ele>
        <time>2022-03-27T09:54:39Z</time>
      </trkpt>
      <trkpt lat="46.11987" lon="6.77028">
        <ele>1591</ele>
        <time>2022-03-27T09:54:57Z</time>
      </trkpt>
      <trkpt lat="46.11995" lon="6.77028">
        <ele>1591</ele>
        <time>2022-03-27T09:55:05Z</time>
      </trkpt>
      <trkpt lat="46.12002" lon="6.77031">
        <ele>1593</ele>
        <time>2022-03-27T09:55:12Z</time>
      </trkpt>
      <trkpt lat="46.12008" lon="6.77038">
        <ele>1594</ele>
        <time>2022-03-27T09:55:22Z</time>
      </trkpt>
      <trkpt lat="46.12007" lon="6.77049">
        <ele>1594</ele>
        <time>2022-03-27T09:55:31Z</time>
      </trkpt>
      <trkpt lat="46.12011" lon="6.77082">
        <ele>1594</ele>
        <time>2022-03-27T09:56:04Z</time>
      </trkpt>
      <trkpt lat="46.12016" lon="6.7709">
        <ele>1593</ele>
        <time>2022-03-27T09:56:10Z</time>
      </trkpt>
      <trkpt lat="46.12017" lon="6.77102">
        <ele>1593</ele>
        <time>2022-03-27T09:56:21Z</time>
      </trkpt>
      <trkpt lat="46.12015" lon="6.77113">
        <ele>1593</ele>
        <time>2022-03-27T09:56:30Z</time>
      </trkpt>
      <trkpt lat="46.12016" lon="6.77127">
        <ele>1593</ele>
        <time>2022-03-27T09:56:41Z</time>
      </trkpt>
      <trkpt lat="46.12013" lon="6.77139">
        <ele>1595</ele>
        <time>2022-03-27T09:56:50Z</time>
      </trkpt>
      <trkpt lat="46.12013" lon="6.77151">
        <ele>1597</ele>
        <time>2022-03-27T09:57:06Z</time>
      </trkpt>
      <trkpt lat="46.1202" lon="6.77163">
        <ele>1600</ele>
        <time>2022-03-27T09:57:27Z</time>
      </trkpt>
      <trkpt lat="46.12029" lon="6.77169">
        <ele>1603</ele>
        <time>2022-03-27T09:57:41Z</time>
      </trkpt>
      <trkpt lat="46.12036" lon="6.77172">
        <ele>1605</ele>
        <time>2022-03-27T09:57:57Z</time>
      </trkpt>
      <trkpt lat="46.12047" lon="6.77175">
        <ele>1609</ele>
        <time>2022-03-27T09:58:12Z</time>
      </trkpt>
      <trkpt lat="46.12055" lon="6.77174">
        <ele>1612</ele>
        <time>2022-03-27T09:58:26Z</time>
      </trkpt>
      <trkpt lat="46.12062" lon="6.77178">
        <ele>1616</ele>
        <time>2022-03-27T09:58:44Z</time>
      </trkpt>
      <trkpt lat="46.12066" lon="6.77189">
        <ele>1615</ele>
        <time>2022-03-27T09:59:02Z</time>
      </trkpt>
      <trkpt lat="46.12067" lon="6.772">
        <ele>1614</ele>
        <time>2022-03-27T09:59:23Z</time>
      </trkpt>
      <trkpt lat="46.12073" lon="6.77213">
        <ele>1614</ele>
        <time>2022-03-27T09:59:37Z</time>
      </trkpt>
      <trkpt lat="46.12076" lon="6.77223">
        <ele>1613</ele>
        <time>2022-03-27T09:59:46Z</time>
      </trkpt>
      <trkpt lat="46.12079" lon="6.77235">
        <ele>1614</ele>
        <time>2022-03-27T10:00:00Z</time>
      </trkpt>
      <trkpt lat="46.12084" lon="6.77247">
        <ele>1617</ele>
        <time>2022-03-27T10:00:16Z</time>
      </trkpt>
      <trkpt lat="46.12091" lon="6.77253">
        <ele>1620</ele>
        <time>2022-03-27T10:00:23Z</time>
      </trkpt>
      <trkpt lat="46.12095" lon="6.77267">
        <ele>1624</ele>
        <time>2022-03-27T10:01:38Z</time>
      </trkpt>
      <trkpt lat="46.12103" lon="6.7728">
        <ele>1627</ele>
        <time>2022-03-27T10:02:57Z</time>
      </trkpt>
      <trkpt lat="46.12106" lon="6.77295">
        <ele>1628</ele>
        <time>2022-03-27T10:03:07Z</time>
      </trkpt>
      <trkpt lat="46.1211" lon="6.77303">
        <ele>1631</ele>
        <time>2022-03-27T10:03:19Z</time>
      </trkpt>
      <trkpt lat="46.12111" lon="6.77314">
        <ele>1632</ele>
        <time>2022-03-27T10:03:33Z</time>
      </trkpt>
      <trkpt lat="46.1211" lon="6.77324">
        <ele>1635</ele>
        <time>2022-03-27T10:03:42Z</time>
      </trkpt>
      <trkpt lat="46.12106" lon="6.77334">
        <ele>1636</ele>
        <time>2022-03-27T10:03:52Z</time>
      </trkpt>
      <trkpt lat="46.12103" lon="6.77347">
        <ele>1638</ele>
        <time>2022-03-27T10:04:12Z</time>
      </trkpt>
      <trkpt lat="46.121" lon="6.77358">
        <ele>1638</ele>
        <time>2022-03-27T10:04:25Z</time>
      </trkpt>
      <trkpt lat="46.121" lon="6.77369">
        <ele>1640</ele>
        <time>2022-03-27T10:04:36Z</time>
      </trkpt>
      <trkpt lat="46.121" lon="6.77382">
        <ele>1641</ele>
        <time>2022-03-27T10:04:56Z</time>
      </trkpt>
      <trkpt lat="46.12099" lon="6.77392">
        <ele>1644</ele>
        <time>2022-03-27T10:05:14Z</time>
      </trkpt>
      <trkpt lat="46.12106" lon="6.77411">
        <ele>1645</ele>
        <time>2022-03-27T10:05:32Z</time>
      </trkpt>
      <trkpt lat="46.12106" lon="6.7742">
        <ele>1647</ele>
        <time>2022-03-27T10:05:40Z</time>
      </trkpt>
      <trkpt lat="46.12105" lon="6.77429">
        <ele>1649</ele>
        <time>2022-03-27T10:05:50Z</time>
      </trkpt>
      <trkpt lat="46.12104" lon="6.77437">
        <ele>1652</ele>
        <time>2022-03-27T10:05:59Z</time>
      </trkpt>
      <trkpt lat="46.12104" lon="6.77448">
        <ele>1653</ele>
        <time>2022-03-27T10:06:14Z</time>
      </trkpt>
      <trkpt lat="46.12104" lon="6.77456">
        <ele>1655</ele>
        <time>2022-03-27T10:06:25Z</time>
      </trkpt>
      <trkpt lat="46.12108" lon="6.77474">
        <ele>1658</ele>
        <time>2022-03-27T10:06:46Z</time>
      </trkpt>
      <trkpt lat="46.12111" lon="6.77484">
        <ele>1659</ele>
        <time>2022-03-27T10:06:56Z</time>
      </trkpt>
      <trkpt lat="46.12107" lon="6.77494">
        <ele>1660</ele>
        <time>2022-03-27T10:07:07Z</time>
      </trkpt>
      <trkpt lat="46.12111" lon="6.77509">
        <ele>1660</ele>
        <time>2022-03-27T10:07:25Z</time>
      </trkpt>
      <trkpt lat="46.12114" lon="6.77519">
        <ele>1662</ele>
        <time>2022-03-27T10:07:37Z</time>
      </trkpt>
      <trkpt lat="46.12117" lon="6.77534">
        <ele>1664</ele>
        <time>2022-03-27T10:07:56Z</time>
      </trkpt>
      <trkpt lat="46.1212" lon="6.77546">
        <ele>1666</ele>
        <time>2022-03-27T10:08:12Z</time>
      </trkpt>
      <trkpt lat="46.12123" lon="6.77557">
        <ele>1669</ele>
        <time>2022-03-27T10:08:25Z</time>
      </trkpt>
      <trkpt lat="46.12119" lon="6.77568">
        <ele>1670</ele>
        <time>2022-03-27T10:08:40Z</time>
      </trkpt>
      <trkpt lat="46.12115" lon="6.77577">
        <ele>1672</ele>
        <time>2022-03-27T10:08:50Z</time>
      </trkpt>
      <trkpt lat="46.12118" lon="6.77587">
        <ele>1673</ele>
        <time>2022-03-27T10:09:08Z</time>
      </trkpt>
      <trkpt lat="46.12121" lon="6.77596">
        <ele>1676</ele>
        <time>2022-03-27T10:09:24Z</time>
      </trkpt>
      <trkpt lat="46.12125" lon="6.77606">
        <ele>1679</ele>
        <time>2022-03-27T10:09:40Z</time>
      </trkpt>
      <trkpt lat="46.12126" lon="6.77616">
        <ele>1681</ele>
        <time>2022-03-27T10:09:58Z</time>
      </trkpt>
      <trkpt lat="46.1213" lon="6.77626">
        <ele>1684</ele>
        <time>2022-03-27T10:10:20Z</time>
      </trkpt>
      <trkpt lat="46.12138" lon="6.77625">
        <ele>1685</ele>
        <time>2022-03-27T10:10:37Z</time>
      </trkpt>
      <trkpt lat="46.12143" lon="6.77633">
        <ele>1689</ele>
        <time>2022-03-27T10:10:44Z</time>
      </trkpt>
      <trkpt lat="46.12144" lon="6.77644">
        <ele>1690</ele>
        <time>2022-03-27T10:10:57Z</time>
      </trkpt>
      <trkpt lat="46.12149" lon="6.77655">
        <ele>1693</ele>
        <time>2022-03-27T10:11:11Z</time>
      </trkpt>
      <trkpt lat="46.1215" lon="6.77662">
        <ele>1694</ele>
        <time>2022-03-27T10:11:23Z</time>
      </trkpt>
      <trkpt lat="46.12155" lon="6.7767">
        <ele>1698</ele>
        <time>2022-03-27T10:11:48Z</time>
      </trkpt>
      <trkpt lat="46.12157" lon="6.77681">
        <ele>1699</ele>
        <time>2022-03-27T10:12:01Z</time>
      </trkpt>
      <trkpt lat="46.1216" lon="6.77692">
        <ele>1704</ele>
        <time>2022-03-27T10:12:17Z</time>
      </trkpt>
      <trkpt lat="46.12166" lon="6.777">
        <ele>1707</ele>
        <time>2022-03-27T10:12:36Z</time>
      </trkpt>
      <trkpt lat="46.12171" lon="6.77709">
        <ele>1708</ele>
        <time>2022-03-27T10:12:48Z</time>
      </trkpt>
      <trkpt lat="46.12173" lon="6.77719">
        <ele>1709</ele>
        <time>2022-03-27T10:12:54Z</time>
      </trkpt>
      <trkpt lat="46.12175" lon="6.77731">
        <ele>1711</ele>
        <time>2022-03-27T10:13:09Z</time>
      </trkpt>
      <trkpt lat="46.12178" lon="6.7774">
        <ele>1712</ele>
        <time>2022-03-27T10:13:22Z</time>
      </trkpt>
      <trkpt lat="46.12181" lon="6.77751">
        <ele>1714</ele>
        <time>2022-03-27T10:13:34Z</time>
      </trkpt>
      <trkpt lat="46.12184" lon="6.77758">
        <ele>1715</ele>
        <time>2022-03-27T10:13:48Z</time>
      </trkpt>
      <trkpt lat="46.12183" lon="6.7777">
        <ele>1717</ele>
        <time>2022-03-27T10:14:04Z</time>
      </trkpt>
      <trkpt lat="46.12184" lon="6.77782">
        <ele>1721</ele>
        <time>2022-03-27T10:14:10Z</time>
      </trkpt>
      <trkpt lat="46.12188" lon="6.77787">
        <ele>1724</ele>
        <time>2022-03-27T10:14:30Z</time>
      </trkpt>
      <trkpt lat="46.1219" lon="6.77799">
        <ele>1725</ele>
        <time>2022-03-27T10:14:37Z</time>
      </trkpt>
      <trkpt lat="46.122" lon="6.77819">
        <ele>1731</ele>
        <time>2022-03-27T10:15:09Z</time>
      </trkpt>
      <trkpt lat="46.12204" lon="6.7784">
        <ele>1736</ele>
        <time>2022-03-27T10:15:44Z</time>
      </trkpt>
      <trkpt lat="46.12207" lon="6.7785">
        <ele>1741</ele>
        <time>2022-03-27T10:16:00Z</time>
      </trkpt>
      <trkpt lat="46.1221" lon="6.7786">
        <ele>1742</ele>
        <time>2022-03-27T10:16:13Z</time>
      </trkpt>
      <trkpt lat="46.12214" lon="6.77868">
        <ele>1743</ele>
        <time>2022-03-27T10:16:27Z</time>
      </trkpt>
      <trkpt lat="46.12221" lon="6.7789">
        <ele>1745</ele>
        <time>2022-03-27T10:16:48Z</time>
      </trkpt>
      <trkpt lat="46.12224" lon="6.77902">
        <ele>1746</ele>
        <time>2022-03-27T10:17:01Z</time>
      </trkpt>
      <trkpt lat="46.12225" lon="6.77914">
        <ele>1746</ele>
        <time>2022-03-27T10:17:11Z</time>
      </trkpt>
      <trkpt lat="46.12226" lon="6.77925">
        <ele>1747</ele>
        <time>2022-03-27T10:17:20Z</time>
      </trkpt>
      <trkpt lat="46.12228" lon="6.77937">
        <ele>1747</ele>
        <time>2022-03-27T10:17:29Z</time>
      </trkpt>
      <trkpt lat="46.12231" lon="6.77948">
        <ele>1749</ele>
        <time>2022-03-27T10:17:42Z</time>
      </trkpt>
      <trkpt lat="46.12234" lon="6.77958">
        <ele>1750</ele>
        <time>2022-03-27T10:17:54Z</time>
      </trkpt>
      <trkpt lat="46.12237" lon="6.77968">
        <ele>1751</ele>
        <time>2022-03-27T10:18:07Z</time>
      </trkpt>
      <trkpt lat="46.12237" lon="6.77985">
        <ele>1751</ele>
        <time>2022-03-27T10:18:24Z</time>
      </trkpt>
      <trkpt lat="46.1224" lon="6.77995">
        <ele>1751</ele>
        <time>2022-03-27T10:18:32Z</time>
      </trkpt>
      <trkpt lat="46.12246" lon="6.78004">
        <ele>1752</ele>
        <time>2022-03-27T10:18:40Z</time>
      </trkpt>
      <trkpt lat="46.12249" lon="6.78013">
        <ele>1756</ele>
        <time>2022-03-27T10:18:56Z</time>
      </trkpt>
      <trkpt lat="46.12252" lon="6.78025">
        <ele>1757</ele>
        <time>2022-03-27T10:19:08Z</time>
      </trkpt>
      <trkpt lat="46.12254" lon="6.78041">
        <ele>1760</ele>
        <time>2022-03-27T10:19:22Z</time>
      </trkpt>
      <trkpt lat="46.12265" lon="6.78053">
        <ele>1761</ele>
        <time>2022-03-27T10:19:33Z</time>
      </trkpt>
      <trkpt lat="46.12274" lon="6.78064">
        <ele>1765</ele>
        <time>2022-03-27T10:19:55Z</time>
      </trkpt>
      <trkpt lat="46.12284" lon="6.78072">
        <ele>1766</ele>
        <time>2022-03-27T10:20:03Z</time>
      </trkpt>
      <trkpt lat="46.12297" lon="6.78088">
        <ele>1769</ele>
        <time>2022-03-27T10:20:17Z</time>
      </trkpt>
      <trkpt lat="46.12309" lon="6.78107">
        <ele>1774</ele>
        <time>2022-03-27T10:20:43Z</time>
      </trkpt>
      <trkpt lat="46.12305" lon="6.78115">
        <ele>1780</ele>
        <time>2022-03-27T10:21:10Z</time>
      </trkpt>
      <trkpt lat="46.12309" lon="6.78124">
        <ele>1780</ele>
        <time>2022-03-27T10:21:19Z</time>
      </trkpt>
      <trkpt lat="46.12307" lon="6.78136">
        <ele>1782</ele>
        <time>2022-03-27T10:21:41Z</time>
      </trkpt>
      <trkpt lat="46.12311" lon="6.78145">
        <ele>1782</ele>
        <time>2022-03-27T10:21:49Z</time>
      </trkpt>
      <trkpt lat="46.12317" lon="6.78153">
        <ele>1781</ele>
        <time>2022-03-27T10:22:04Z</time>
      </trkpt>
      <trkpt lat="46.12324" lon="6.78185">
        <ele>1782</ele>
        <time>2022-03-27T10:22:41Z</time>
      </trkpt>
      <trkpt lat="46.12324" lon="6.78196">
        <ele>1783</ele>
        <time>2022-03-27T10:22:48Z</time>
      </trkpt>
      <trkpt lat="46.12328" lon="6.78205">
        <ele>1784</ele>
        <time>2022-03-27T10:22:55Z</time>
      </trkpt>
      <trkpt lat="46.12332" lon="6.78215">
        <ele>1786</ele>
        <time>2022-03-27T10:23:05Z</time>
      </trkpt>
      <trkpt lat="46.12338" lon="6.78228">
        <ele>1787</ele>
        <time>2022-03-27T10:23:22Z</time>
      </trkpt>
      <trkpt lat="46.12344" lon="6.78234">
        <ele>1789</ele>
        <time>2022-03-27T10:23:32Z</time>
      </trkpt>
      <trkpt lat="46.1235" lon="6.78241">
        <ele>1789</ele>
        <time>2022-03-27T10:23:44Z</time>
      </trkpt>
      <trkpt lat="46.12354" lon="6.7827">
        <ele>1792</ele>
        <time>2022-03-27T10:24:04Z</time>
      </trkpt>
      <trkpt lat="46.12361" lon="6.78291">
        <ele>1794</ele>
        <time>2022-03-27T10:24:28Z</time>
      </trkpt>
      <trkpt lat="46.12361" lon="6.78302">
        <ele>1796</ele>
        <time>2022-03-27T10:24:44Z</time>
      </trkpt>
      <trkpt lat="46.12364" lon="6.78312">
        <ele>1797</ele>
        <time>2022-03-27T10:25:00Z</time>
      </trkpt>
      <trkpt lat="46.12369" lon="6.78321">
        <ele>1799</ele>
        <time>2022-03-27T10:25:11Z</time>
      </trkpt>
      <trkpt lat="46.12376" lon="6.78322">
        <ele>1800</ele>
        <time>2022-03-27T10:25:23Z</time>
      </trkpt>
      <trkpt lat="46.12382" lon="6.78329">
        <ele>1802</ele>
        <time>2022-03-27T10:25:34Z</time>
      </trkpt>
      <trkpt lat="46.12388" lon="6.78343">
        <ele>1803</ele>
        <time>2022-03-27T10:25:51Z</time>
      </trkpt>
      <trkpt lat="46.12388" lon="6.78355">
        <ele>1807</ele>
        <time>2022-03-27T10:26:10Z</time>
      </trkpt>
      <trkpt lat="46.1238" lon="6.78356">
        <ele>1809</ele>
        <time>2022-03-27T10:26:27Z</time>
      </trkpt>
      <trkpt lat="46.12372" lon="6.78357">
        <ele>1813</ele>
        <time>2022-03-27T10:26:36Z</time>
      </trkpt>
      <trkpt lat="46.12376" lon="6.7837">
        <ele>1813</ele>
        <time>2022-03-27T10:26:52Z</time>
      </trkpt>
      <trkpt lat="46.12385" lon="6.78372">
        <ele>1814</ele>
        <time>2022-03-27T10:26:59Z</time>
      </trkpt>
      <trkpt lat="46.1239" lon="6.78376">
        <ele>1817</ele>
        <time>2022-03-27T10:27:18Z</time>
      </trkpt>
      <trkpt lat="46.12397" lon="6.78381">
        <ele>1817</ele>
        <time>2022-03-27T10:27:30Z</time>
      </trkpt>
      <trkpt lat="46.12408" lon="6.78394">
        <ele>1819</ele>
        <time>2022-03-27T10:27:46Z</time>
      </trkpt>
      <trkpt lat="46.12411" lon="6.78404">
        <ele>1819</ele>
        <time>2022-03-27T10:28:00Z</time>
      </trkpt>
      <trkpt lat="46.12415" lon="6.78415">
        <ele>1820</ele>
        <time>2022-03-27T10:28:10Z</time>
      </trkpt>
      <trkpt lat="46.1242" lon="6.78425">
        <ele>1820</ele>
        <time>2022-03-27T10:28:20Z</time>
      </trkpt>
      <trkpt lat="46.12422" lon="6.7844">
        <ele>1823</ele>
        <time>2022-03-27T10:28:26Z</time>
      </trkpt>
      <trkpt lat="46.1243" lon="6.78458">
        <ele>1825</ele>
        <time>2022-03-27T10:28:59Z</time>
      </trkpt>
      <trkpt lat="46.12434" lon="6.78467">
        <ele>1826</ele>
        <time>2022-03-27T10:29:09Z</time>
      </trkpt>
      <trkpt lat="46.12436" lon="6.78478">
        <ele>1827</ele>
        <time>2022-03-27T10:29:22Z</time>
      </trkpt>
      <trkpt lat="46.12437" lon="6.78495">
        <ele>1827</ele>
        <time>2022-03-27T10:29:36Z</time>
      </trkpt>
      <trkpt lat="46.12442" lon="6.7851">
        <ele>1828</ele>
        <time>2022-03-27T10:29:49Z</time>
      </trkpt>
      <trkpt lat="46.12451" lon="6.78513">
        <ele>1831</ele>
        <time>2022-03-27T10:30:01Z</time>
      </trkpt>
      <trkpt lat="46.12466" lon="6.78512">
        <ele>1834</ele>
        <time>2022-03-27T10:30:14Z</time>
      </trkpt>
      <trkpt lat="46.12471" lon="6.78507">
        <ele>1834</ele>
        <time>2022-03-27T10:30:26Z</time>
      </trkpt>
      <trkpt lat="46.12477" lon="6.78506">
        <ele>1834</ele>
        <time>2022-03-27T10:30:33Z</time>
      </trkpt>
      <trkpt lat="46.12483" lon="6.78507">
        <ele>1834</ele>
        <time>2022-03-27T10:30:39Z</time>
      </trkpt>
      <trkpt lat="46.1249" lon="6.78512">
        <ele>1833</ele>
        <time>2022-03-27T10:30:48Z</time>
      </trkpt>
      <trkpt lat="46.12496" lon="6.78512">
        <ele>1833</ele>
        <time>2022-03-27T10:30:57Z</time>
      </trkpt>
      <trkpt lat="46.12502" lon="6.78513">
        <ele>1833</ele>
        <time>2022-03-27T10:31:02Z</time>
      </trkpt>
      <trkpt lat="46.12513" lon="6.78524">
        <ele>1834</ele>
        <time>2022-03-27T10:31:20Z</time>
      </trkpt>
      <trkpt lat="46.12522" lon="6.78536">
        <ele>1835</ele>
        <time>2022-03-27T10:31:38Z</time>
      </trkpt>
      <trkpt lat="46.12529" lon="6.78541">
        <ele>1836</ele>
        <time>2022-03-27T10:31:52Z</time>
      </trkpt>
      <trkpt lat="46.12538" lon="6.7855">
        <ele>1838</ele>
        <time>2022-03-27T10:32:11Z</time>
      </trkpt>
      <trkpt lat="46.12542" lon="6.78555">
        <ele>1839</ele>
        <time>2022-03-27T10:32:25Z</time>
      </trkpt>
      <trkpt lat="46.12547" lon="6.78559">
        <ele>1841</ele>
        <time>2022-03-27T10:32:32Z</time>
      </trkpt>
      <trkpt lat="46.12552" lon="6.78565">
        <ele>1842</ele>
        <time>2022-03-27T10:32:42Z</time>
      </trkpt>
      <trkpt lat="46.12555" lon="6.78571">
        <ele>1845</ele>
        <time>2022-03-27T10:32:53Z</time>
      </trkpt>
      <trkpt lat="46.12559" lon="6.78578">
        <ele>1846</ele>
        <time>2022-03-27T10:33:06Z</time>
      </trkpt>
      <trkpt lat="46.12563" lon="6.78585">
        <ele>1848</ele>
        <time>2022-03-27T10:33:17Z</time>
      </trkpt>
      <trkpt lat="46.12567" lon="6.78591">
        <ele>1848</ele>
        <time>2022-03-27T10:33:31Z</time>
      </trkpt>
      <trkpt lat="46.12571" lon="6.78597">
        <ele>1851</ele>
        <time>2022-03-27T10:33:50Z</time>
      </trkpt>
      <trkpt lat="46.12576" lon="6.78599">
        <ele>1852</ele>
        <time>2022-03-27T10:34:07Z</time>
      </trkpt>
      <trkpt lat="46.12581" lon="6.78595">
        <ele>1855</ele>
        <time>2022-03-27T10:34:39Z</time>
      </trkpt>
      <trkpt lat="46.12583" lon="6.78587">
        <ele>1856</ele>
        <time>2022-03-27T10:35:08Z</time>
      </trkpt>
      <trkpt lat="46.1259" lon="6.78581">
        <ele>1856</ele>
        <time>2022-03-27T10:35:19Z</time>
      </trkpt>
      <trkpt lat="46.12595" lon="6.78574">
        <ele>1858</ele>
        <time>2022-03-27T10:35:28Z</time>
      </trkpt>
      <trkpt lat="46.126" lon="6.78566">
        <ele>1859</ele>
        <time>2022-03-27T10:35:41Z</time>
      </trkpt>
      <trkpt lat="46.12603" lon="6.78559">
        <ele>1859</ele>
        <time>2022-03-27T10:35:51Z</time>
      </trkpt>
      <trkpt lat="46.12607" lon="6.78553">
        <ele>1861</ele>
        <time>2022-03-27T10:36:04Z</time>
      </trkpt>
      <trkpt lat="46.12609" lon="6.78542">
        <ele>1862</ele>
        <time>2022-03-27T10:36:19Z</time>
      </trkpt>
      <trkpt lat="46.12611" lon="6.78533">
        <ele>1865</ele>
        <time>2022-03-27T10:36:31Z</time>
      </trkpt>
      <trkpt lat="46.1261" lon="6.78523">
        <ele>1867</ele>
        <time>2022-03-27T10:36:48Z</time>
      </trkpt>
      <trkpt lat="46.1261" lon="6.78515">
        <ele>1868</ele>
        <time>2022-03-27T10:37:03Z</time>
      </trkpt>
      <trkpt lat="46.12613" lon="6.78507">
        <ele>1870</ele>
        <time>2022-03-27T10:37:14Z</time>
      </trkpt>
      <trkpt lat="46.12615" lon="6.78499">
        <ele>1872</ele>
        <time>2022-03-27T10:37:28Z</time>
      </trkpt>
      <trkpt lat="46.12616" lon="6.78491">
        <ele>1875</ele>
        <time>2022-03-27T10:37:41Z</time>
      </trkpt>
      <trkpt lat="46.12616" lon="6.78474">
        <ele>1878</ele>
        <time>2022-03-27T10:38:05Z</time>
      </trkpt>
      <trkpt lat="46.12618" lon="6.78467">
        <ele>1880</ele>
        <time>2022-03-27T10:38:16Z</time>
      </trkpt>
      <trkpt lat="46.12626" lon="6.78472">
        <ele>1881</ele>
        <time>2022-03-27T10:38:47Z</time>
      </trkpt>
      <trkpt lat="46.12631" lon="6.78473">
        <ele>1883</ele>
        <time>2022-03-27T10:38:54Z</time>
      </trkpt>
      <trkpt lat="46.12638" lon="6.78476">
        <ele>1885</ele>
        <time>2022-03-27T10:39:17Z</time>
      </trkpt>
      <trkpt lat="46.12643" lon="6.78473">
        <ele>1888</ele>
        <time>2022-03-27T10:39:50Z</time>
      </trkpt>
      <trkpt lat="46.12643" lon="6.78464">
        <ele>1889</ele>
        <time>2022-03-27T10:40:02Z</time>
      </trkpt>
      <trkpt lat="46.12645" lon="6.78457">
        <ele>1893</ele>
        <time>2022-03-27T10:40:13Z</time>
      </trkpt>
      <trkpt lat="46.12645" lon="6.78448">
        <ele>1894</ele>
        <time>2022-03-27T10:40:29Z</time>
      </trkpt>
      <trkpt lat="46.12653" lon="6.78429">
        <ele>1898</ele>
        <time>2022-03-27T10:41:05Z</time>
      </trkpt>
      <trkpt lat="46.12653" lon="6.78412">
        <ele>1900</ele>
        <time>2022-03-27T10:41:26Z</time>
      </trkpt>
      <trkpt lat="46.12654" lon="6.78403">
        <ele>1901</ele>
        <time>2022-03-27T10:41:39Z</time>
      </trkpt>
      <trkpt lat="46.12658" lon="6.78397">
        <ele>1903</ele>
        <time>2022-03-27T10:41:54Z</time>
      </trkpt>
      <trkpt lat="46.12662" lon="6.78402">
        <ele>1904</ele>
        <time>2022-03-27T10:42:07Z</time>
      </trkpt>
      <trkpt lat="46.12666" lon="6.78409">
        <ele>1908</ele>
        <time>2022-03-27T10:42:31Z</time>
      </trkpt>
      <trkpt lat="46.12671" lon="6.78413">
        <ele>1908</ele>
        <time>2022-03-27T10:42:42Z</time>
      </trkpt>
      <trkpt lat="46.12675" lon="6.78417">
        <ele>1909</ele>
        <time>2022-03-27T10:43:16Z</time>
      </trkpt>
      <trkpt lat="46.12675" lon="6.78422">
        <ele>1909</ele>
        <time>2022-03-27T10:43:48Z</time>
      </trkpt>
      <trkpt lat="46.1268" lon="6.78431">
        <ele>1911</ele>
        <time>2022-03-27T10:46:15Z</time>
      </trkpt>
      <trkpt lat="46.12686" lon="6.78441">
        <ele>1914</ele>
        <time>2022-03-27T10:46:28Z</time>
      </trkpt>
      <trkpt lat="46.12691" lon="6.78451">
        <ele>1916</ele>
        <time>2022-03-27T10:46:41Z</time>
      </trkpt>
      <trkpt lat="46.12697" lon="6.78459">
        <ele>1918</ele>
        <time>2022-03-27T10:47:00Z</time>
      </trkpt>
      <trkpt lat="46.12701" lon="6.78465">
        <ele>1920</ele>
        <time>2022-03-27T10:47:13Z</time>
      </trkpt>
      <trkpt lat="46.12704" lon="6.78468">
        <ele>1921</ele>
        <time>2022-03-27T10:47:18Z</time>
      </trkpt>
      <trkpt lat="46.12707" lon="6.78473">
        <ele>1922</ele>
        <time>2022-03-27T10:47:31Z</time>
      </trkpt>
      <trkpt lat="46.12716" lon="6.78485">
        <ele>1926</ele>
        <time>2022-03-27T10:48:07Z</time>
      </trkpt>
      <trkpt lat="46.12719" lon="6.78489">
        <ele>1927</ele>
        <time>2022-03-27T10:48:14Z</time>
      </trkpt>
      <trkpt lat="46.12722" lon="6.78492">
        <ele>1929</ele>
        <time>2022-03-27T10:48:27Z</time>
      </trkpt>
      <trkpt lat="46.12724" lon="6.78484">
        <ele>1930</ele>
        <time>2022-03-27T10:48:42Z</time>
      </trkpt>
      <trkpt lat="46.12724" lon="6.78471">
        <ele>1934</ele>
        <time>2022-03-27T10:49:02Z</time>
      </trkpt>
      <trkpt lat="46.12726" lon="6.78464">
        <ele>1935</ele>
        <time>2022-03-27T10:49:12Z</time>
      </trkpt>
      <trkpt lat="46.12725" lon="6.78459">
        <ele>1936</ele>
        <time>2022-03-27T10:49:19Z</time>
      </trkpt>
      <trkpt lat="46.1273" lon="6.7845">
        <ele>1939</ele>
        <time>2022-03-27T10:49:36Z</time>
      </trkpt>
      <trkpt lat="46.12728" lon="6.78442">
        <ele>1940</ele>
        <time>2022-03-27T10:49:50Z</time>
      </trkpt>
      <trkpt lat="46.12729" lon="6.78436">
        <ele>1942</ele>
        <time>2022-03-27T10:50:06Z</time>
      </trkpt>
      <trkpt lat="46.12738" lon="6.78451">
        <ele>1944</ele>
        <time>2022-03-27T10:50:27Z</time>
      </trkpt>
      <trkpt lat="46.12742" lon="6.78456">
        <ele>1945</ele>
        <time>2022-03-27T10:50:35Z</time>
      </trkpt>
      <trkpt lat="46.12744" lon="6.78463">
        <ele>1945</ele>
        <time>2022-03-27T10:50:44Z</time>
      </trkpt>
      <trkpt lat="46.12747" lon="6.78466">
        <ele>1947</ele>
        <time>2022-03-27T10:50:56Z</time>
      </trkpt>
      <trkpt lat="46.12747" lon="6.78472">
        <ele>1948</ele>
        <time>2022-03-27T10:51:03Z</time>
      </trkpt>
      <trkpt lat="46.12749" lon="6.7848">
        <ele>1950</ele>
        <time>2022-03-27T10:51:18Z</time>
      </trkpt>
      <trkpt lat="46.12752" lon="6.78484">
        <ele>1950</ele>
        <time>2022-03-27T10:51:27Z</time>
      </trkpt>
      <trkpt lat="46.12756" lon="6.78494">
        <ele>1952</ele>
        <time>2022-03-27T10:51:39Z</time>
      </trkpt>
      <trkpt lat="46.12759" lon="6.785">
        <ele>1953</ele>
        <time>2022-03-27T10:51:50Z</time>
      </trkpt>
      <trkpt lat="46.12764" lon="6.7851">
        <ele>1955</ele>
        <time>2022-03-27T10:52:09Z</time>
      </trkpt>
      <trkpt lat="46.12766" lon="6.78518">
        <ele>1955</ele>
        <time>2022-03-27T10:52:19Z</time>
      </trkpt>
      <trkpt lat="46.12767" lon="6.78523">
        <ele>1958</ele>
        <time>2022-03-27T10:52:27Z</time>
      </trkpt>
      <trkpt lat="46.12768" lon="6.78528">
        <ele>1958</ele>
        <time>2022-03-27T10:52:35Z</time>
      </trkpt>
      <trkpt lat="46.12771" lon="6.78536">
        <ele>1961</ele>
        <time>2022-03-27T10:52:48Z</time>
      </trkpt>
      <trkpt lat="46.12773" lon="6.78542">
        <ele>1961</ele>
        <time>2022-03-27T10:52:56Z</time>
      </trkpt>
      <trkpt lat="46.12773" lon="6.78548">
        <ele>1961</ele>
        <time>2022-03-27T10:53:08Z</time>
      </trkpt>
      <trkpt lat="46.12776" lon="6.78554">
        <ele>1962</ele>
        <time>2022-03-27T10:53:13Z</time>
      </trkpt>
      <trkpt lat="46.12778" lon="6.7856">
        <ele>1963</ele>
        <time>2022-03-27T10:53:25Z</time>
      </trkpt>
      <trkpt lat="46.12781" lon="6.78564">
        <ele>1963</ele>
        <time>2022-03-27T10:53:31Z</time>
      </trkpt>
      <trkpt lat="46.12784" lon="6.78562">
        <ele>1965</ele>
        <time>2022-03-27T10:53:41Z</time>
      </trkpt>
      <trkpt lat="46.12788" lon="6.78558">
        <ele>1966</ele>
        <time>2022-03-27T10:53:48Z</time>
      </trkpt>
      <trkpt lat="46.12792" lon="6.78555">
        <ele>1967</ele>
        <time>2022-03-27T10:53:57Z</time>
      </trkpt>
      <trkpt lat="46.12804" lon="6.78547">
        <ele>1971</ele>
        <time>2022-03-27T10:54:24Z</time>
      </trkpt>
      <trkpt lat="46.12808" lon="6.78545">
        <ele>1971</ele>
        <time>2022-03-27T10:54:34Z</time>
      </trkpt>
      <trkpt lat="46.12808" lon="6.78551">
        <ele>1973</ele>
        <time>2022-03-27T10:54:43Z</time>
      </trkpt>
      <trkpt lat="46.12813" lon="6.78562">
        <ele>1975</ele>
        <time>2022-03-27T10:55:01Z</time>
      </trkpt>
      <trkpt lat="46.12815" lon="6.7857">
        <ele>1977</ele>
        <time>2022-03-27T10:55:13Z</time>
      </trkpt>
      <trkpt lat="46.12816" lon="6.78575">
        <ele>1978</ele>
        <time>2022-03-27T10:55:23Z</time>
      </trkpt>
      <trkpt lat="46.12818" lon="6.7858">
        <ele>1978</ele>
        <time>2022-03-27T10:55:29Z</time>
      </trkpt>
      <trkpt lat="46.12819" lon="6.78587">
        <ele>1979</ele>
        <time>2022-03-27T10:55:34Z</time>
      </trkpt>
      <trkpt lat="46.1282" lon="6.78593">
        <ele>1979</ele>
        <time>2022-03-27T10:55:43Z</time>
      </trkpt>
      <trkpt lat="46.12823" lon="6.78597">
        <ele>1981</ele>
        <time>2022-03-27T10:55:54Z</time>
      </trkpt>
      <trkpt lat="46.12827" lon="6.78597">
        <ele>1983</ele>
        <time>2022-03-27T10:56:11Z</time>
      </trkpt>
      <trkpt lat="46.12831" lon="6.78594">
        <ele>1984</ele>
        <time>2022-03-27T10:56:20Z</time>
      </trkpt>
      <trkpt lat="46.12833" lon="6.78599">
        <ele>1985</ele>
        <time>2022-03-27T10:56:26Z</time>
      </trkpt>
      <trkpt lat="46.12835" lon="6.78606">
        <ele>1987</ele>
        <time>2022-03-27T10:56:38Z</time>
      </trkpt>
      <trkpt lat="46.12839" lon="6.78613">
        <ele>1988</ele>
        <time>2022-03-27T10:56:53Z</time>
      </trkpt>
      <trkpt lat="46.12838" lon="6.78618">
        <ele>1990</ele>
        <time>2022-03-27T10:57:02Z</time>
      </trkpt>
      <trkpt lat="46.12852" lon="6.78617">
        <ele>1994</ele>
        <time>2022-03-27T10:57:28Z</time>
      </trkpt>
      <trkpt lat="46.12855" lon="6.78616">
        <ele>1996</ele>
        <time>2022-03-27T10:57:38Z</time>
      </trkpt>
      <trkpt lat="46.12858" lon="6.7862">
        <ele>1996</ele>
        <time>2022-03-27T10:57:48Z</time>
      </trkpt>
      <trkpt lat="46.1286" lon="6.78625">
        <ele>1997</ele>
        <time>2022-03-27T10:58:00Z</time>
      </trkpt>
      <trkpt lat="46.12862" lon="6.7863">
        <ele>1998</ele>
        <time>2022-03-27T10:58:11Z</time>
      </trkpt>
      <trkpt lat="46.12871" lon="6.78641">
        <ele>2001</ele>
        <time>2022-03-27T10:58:39Z</time>
      </trkpt>
      <trkpt lat="46.12873" lon="6.78646">
        <ele>2002</ele>
        <time>2022-03-27T10:58:46Z</time>
      </trkpt>
      <trkpt lat="46.12875" lon="6.78651">
        <ele>2003</ele>
        <time>2022-03-27T10:58:57Z</time>
      </trkpt>
      <trkpt lat="46.12885" lon="6.78667">
        <ele>2009</ele>
        <time>2022-03-27T10:59:34Z</time>
      </trkpt>
      <trkpt lat="46.12889" lon="6.78669">
        <ele>2010</ele>
        <time>2022-03-27T10:59:43Z</time>
      </trkpt>
      <trkpt lat="46.12892" lon="6.78673">
        <ele>2011</ele>
        <time>2022-03-27T10:59:49Z</time>
      </trkpt>
      <trkpt lat="46.12895" lon="6.78675">
        <ele>2012</ele>
        <time>2022-03-27T11:00:03Z</time>
      </trkpt>
      <trkpt lat="46.129" lon="6.7868">
        <ele>2014</ele>
        <time>2022-03-27T11:01:04Z</time>
      </trkpt>
      <trkpt lat="46.12903" lon="6.78683">
        <ele>2017</ele>
        <time>2022-03-27T11:01:11Z</time>
      </trkpt>
      <trkpt lat="46.12907" lon="6.78684">
        <ele>2017</ele>
        <time>2022-03-27T11:01:17Z</time>
      </trkpt>
      <trkpt lat="46.12916" lon="6.7869">
        <ele>2018</ele>
        <time>2022-03-27T11:01:34Z</time>
      </trkpt>
      <trkpt lat="46.12916" lon="6.78698">
        <ele>2020</ele>
        <time>2022-03-27T11:01:47Z</time>
      </trkpt>
      <trkpt lat="46.12916" lon="6.78706">
        <ele>2021</ele>
        <time>2022-03-27T11:01:58Z</time>
      </trkpt>
      <trkpt lat="46.12919" lon="6.78712">
        <ele>2024</ele>
        <time>2022-03-27T11:02:09Z</time>
      </trkpt>
      <trkpt lat="46.1292" lon="6.78718">
        <ele>2025</ele>
        <time>2022-03-27T11:02:19Z</time>
      </trkpt>
      <trkpt lat="46.12922" lon="6.7873">
        <ele>2027</ele>
        <time>2022-03-27T11:02:38Z</time>
      </trkpt>
      <trkpt lat="46.12924" lon="6.78735">
        <ele>2028</ele>
        <time>2022-03-27T11:02:44Z</time>
      </trkpt>
      <trkpt lat="46.12931" lon="6.78757">
        <ele>2033</ele>
        <time>2022-03-27T11:03:22Z</time>
      </trkpt>
      <trkpt lat="46.12933" lon="6.78763">
        <ele>2034</ele>
        <time>2022-03-27T11:03:34Z</time>
      </trkpt>
      <trkpt lat="46.12938" lon="6.78773">
        <ele>2038</ele>
        <time>2022-03-27T11:03:54Z</time>
      </trkpt>
      <trkpt lat="46.12941" lon="6.78777">
        <ele>2039</ele>
        <time>2022-03-27T11:04:03Z</time>
      </trkpt>
      <trkpt lat="46.12948" lon="6.78794">
        <ele>2041</ele>
        <time>2022-03-27T11:04:31Z</time>
      </trkpt>
      <trkpt lat="46.12949" lon="6.78799">
        <ele>2043</ele>
        <time>2022-03-27T11:04:38Z</time>
      </trkpt>
      <trkpt lat="46.12952" lon="6.78805">
        <ele>2046</ele>
        <time>2022-03-27T11:04:59Z</time>
      </trkpt>
      <trkpt lat="46.12954" lon="6.78811">
        <ele>2047</ele>
        <time>2022-03-27T11:05:06Z</time>
      </trkpt>
      <trkpt lat="46.12957" lon="6.78815">
        <ele>2048</ele>
        <time>2022-03-27T11:05:13Z</time>
      </trkpt>
      <trkpt lat="46.1296" lon="6.78829">
        <ele>2050</ele>
        <time>2022-03-27T11:05:43Z</time>
      </trkpt>
      <trkpt lat="46.12964" lon="6.78829">
        <ele>2051</ele>
        <time>2022-03-27T11:05:54Z</time>
      </trkpt>
      <trkpt lat="46.1297" lon="6.78826">
        <ele>2053</ele>
        <time>2022-03-27T11:06:06Z</time>
      </trkpt>
      <trkpt lat="46.12978" lon="6.7882">
        <ele>2055</ele>
        <time>2022-03-27T11:06:20Z</time>
      </trkpt>
      <trkpt lat="46.12982" lon="6.7881">
        <ele>2057</ele>
        <time>2022-03-27T11:06:38Z</time>
      </trkpt>
      <trkpt lat="46.12986" lon="6.78804">
        <ele>2058</ele>
        <time>2022-03-27T11:06:50Z</time>
      </trkpt>
      <trkpt lat="46.12988" lon="6.788">
        <ele>2059</ele>
        <time>2022-03-27T11:06:59Z</time>
      </trkpt>
      <trkpt lat="46.12992" lon="6.78802">
        <ele>2060</ele>
        <time>2022-03-27T11:07:17Z</time>
      </trkpt>
      <trkpt lat="46.12996" lon="6.78807">
        <ele>2061</ele>
        <time>2022-03-27T11:07:25Z</time>
      </trkpt>
      <trkpt lat="46.12999" lon="6.78812">
        <ele>2062</ele>
        <time>2022-03-27T11:07:34Z</time>
      </trkpt>
      <trkpt lat="46.13002" lon="6.78815">
        <ele>2063</ele>
        <time>2022-03-27T11:07:44Z</time>
      </trkpt>
      <trkpt lat="46.13005" lon="6.78818">
        <ele>2066</ele>
        <time>2022-03-27T11:07:57Z</time>
      </trkpt>
      <trkpt lat="46.1301" lon="6.78827">
        <ele>2068</ele>
        <time>2022-03-27T11:08:13Z</time>
      </trkpt>
      <trkpt lat="46.13012" lon="6.78822">
        <ele>2070</ele>
        <time>2022-03-27T11:08:31Z</time>
      </trkpt>
      <trkpt lat="46.13013" lon="6.78816">
        <ele>2071</ele>
        <time>2022-03-27T11:08:41Z</time>
      </trkpt>
      <trkpt lat="46.13019" lon="6.78811">
        <ele>2072</ele>
        <time>2022-03-27T11:08:56Z</time>
      </trkpt>
      <trkpt lat="46.13019" lon="6.78805">
        <ele>2074</ele>
        <time>2022-03-27T11:09:44Z</time>
      </trkpt>
      <trkpt lat="46.1302" lon="6.78798">
        <ele>2075</ele>
        <time>2022-03-27T11:09:53Z</time>
      </trkpt>
      <trkpt lat="46.13024" lon="6.78791">
        <ele>2076</ele>
        <time>2022-03-27T11:10:07Z</time>
      </trkpt>
      <trkpt lat="46.13026" lon="6.78786">
        <ele>2077</ele>
        <time>2022-03-27T11:10:13Z</time>
      </trkpt>
      <trkpt lat="46.13029" lon="6.78782">
        <ele>2078</ele>
        <time>2022-03-27T11:10:24Z</time>
      </trkpt>
      <trkpt lat="46.13033" lon="6.78778">
        <ele>2079</ele>
        <time>2022-03-27T11:10:31Z</time>
      </trkpt>
      <trkpt lat="46.13038" lon="6.78774">
        <ele>2080</ele>
        <time>2022-03-27T11:10:44Z</time>
      </trkpt>
      <trkpt lat="46.13041" lon="6.78773">
        <ele>2082</ele>
        <time>2022-03-27T11:10:53Z</time>
      </trkpt>
      <trkpt lat="46.13045" lon="6.78773">
        <ele>2083</ele>
        <time>2022-03-27T11:10:59Z</time>
      </trkpt>
      <trkpt lat="46.13049" lon="6.78771">
        <ele>2085</ele>
        <time>2022-03-27T11:11:09Z</time>
      </trkpt>
      <trkpt lat="46.13052" lon="6.78769">
        <ele>2085</ele>
        <time>2022-03-27T11:11:18Z</time>
      </trkpt>
      <trkpt lat="46.13056" lon="6.78766">
        <ele>2086</ele>
        <time>2022-03-27T11:11:28Z</time>
      </trkpt>
      <trkpt lat="46.13067" lon="6.78755">
        <ele>2089</ele>
        <time>2022-03-27T11:12:02Z</time>
      </trkpt>
      <trkpt lat="46.13071" lon="6.78753">
        <ele>2091</ele>
        <time>2022-03-27T11:12:08Z</time>
      </trkpt>
      <trkpt lat="46.13074" lon="6.78755">
        <ele>2092</ele>
        <time>2022-03-27T11:12:35Z</time>
      </trkpt>
      <trkpt lat="46.13075" lon="6.7876">
        <ele>2093</ele>
        <time>2022-03-27T11:12:43Z</time>
      </trkpt>
      <trkpt lat="46.13074" lon="6.78766">
        <ele>2093</ele>
        <time>2022-03-27T11:12:51Z</time>
      </trkpt>
      <trkpt lat="46.13074" lon="6.78772">
        <ele>2094</ele>
        <time>2022-03-27T11:13:04Z</time>
      </trkpt>
      <trkpt lat="46.13075" lon="6.78778">
        <ele>2095</ele>
        <time>2022-03-27T11:13:21Z</time>
      </trkpt>
      <trkpt lat="46.13076" lon="6.78783">
        <ele>2095</ele>
        <time>2022-03-27T11:13:26Z</time>
      </trkpt>
      <trkpt lat="46.13076" lon="6.78789">
        <ele>2096</ele>
        <time>2022-03-27T11:13:38Z</time>
      </trkpt>
      <trkpt lat="46.13076" lon="6.78797">
        <ele>2100</ele>
        <time>2022-03-27T11:13:58Z</time>
      </trkpt>
      <trkpt lat="46.13079" lon="6.78801">
        <ele>2103</ele>
        <time>2022-03-27T11:14:07Z</time>
      </trkpt>
      <trkpt lat="46.13083" lon="6.78803">
        <ele>2105</ele>
        <time>2022-03-27T11:14:16Z</time>
      </trkpt>
      <trkpt lat="46.13087" lon="6.78802">
        <ele>2106</ele>
        <time>2022-03-27T11:14:23Z</time>
      </trkpt>
      <trkpt lat="46.1309" lon="6.78802">
        <ele>2108</ele>
        <time>2022-03-27T11:14:34Z</time>
      </trkpt>
      <trkpt lat="46.13094" lon="6.78801">
        <ele>2109</ele>
        <time>2022-03-27T11:14:46Z</time>
      </trkpt>
      <trkpt lat="46.13098" lon="6.788">
        <ele>2112</ele>
        <time>2022-03-27T11:15:03Z</time>
      </trkpt>
      <trkpt lat="46.13103" lon="6.78789">
        <ele>2115</ele>
        <time>2022-03-27T11:15:36Z</time>
      </trkpt>
      <trkpt lat="46.13104" lon="6.78783">
        <ele>2116</ele>
        <time>2022-03-27T11:15:44Z</time>
      </trkpt>
      <trkpt lat="46.13107" lon="6.78779">
        <ele>2117</ele>
        <time>2022-03-27T11:15:56Z</time>
      </trkpt>
      <trkpt lat="46.13112" lon="6.78782">
        <ele>2118</ele>
        <time>2022-03-27T11:16:10Z</time>
      </trkpt>
      <trkpt lat="46.13117" lon="6.78787">
        <ele>2120</ele>
        <time>2022-03-27T11:17:28Z</time>
      </trkpt>
      <trkpt lat="46.13121" lon="6.78792">
        <ele>2122</ele>
        <time>2022-03-27T11:17:34Z</time>
      </trkpt>
      <trkpt lat="46.13126" lon="6.78795">
        <ele>2124</ele>
        <time>2022-03-27T11:17:44Z</time>
      </trkpt>
      <trkpt lat="46.13129" lon="6.78803">
        <ele>2125</ele>
        <time>2022-03-27T11:17:55Z</time>
      </trkpt>
      <trkpt lat="46.13131" lon="6.78807">
        <ele>2126</ele>
        <time>2022-03-27T11:18:05Z</time>
      </trkpt>
      <trkpt lat="46.13138" lon="6.78821">
        <ele>2129</ele>
        <time>2022-03-27T11:18:31Z</time>
      </trkpt>
      <trkpt lat="46.13141" lon="6.78825">
        <ele>2130</ele>
        <time>2022-03-27T11:18:38Z</time>
      </trkpt>
      <trkpt lat="46.13145" lon="6.78831">
        <ele>2131</ele>
        <time>2022-03-27T11:18:49Z</time>
      </trkpt>
      <trkpt lat="46.13157" lon="6.78825">
        <ele>2135</ele>
        <time>2022-03-27T11:19:28Z</time>
      </trkpt>
      <trkpt lat="46.13154" lon="6.78823">
        <ele>2135</ele>
        <time>2022-03-27T11:19:44Z</time>
      </trkpt>
      <trkpt lat="46.13156" lon="6.7883">
        <ele>2134</ele>
        <time>2022-03-27T11:26:20Z</time>
      </trkpt>
      <trkpt lat="46.13162" lon="6.78826">
        <ele>2132</ele>
        <time>2022-03-27T11:43:24Z</time>
      </trkpt>
      <trkpt lat="46.13169" lon="6.78822">
        <ele>2132</ele>
        <time>2022-03-27T11:43:30Z</time>
      </trkpt>
      <trkpt lat="46.13177" lon="6.78819">
        <ele>2132</ele>
        <time>2022-03-27T11:43:39Z</time>
      </trkpt>
      <trkpt lat="46.13182" lon="6.78815">
        <ele>2133</ele>
        <time>2022-03-27T11:43:49Z</time>
      </trkpt>
      <trkpt lat="46.13186" lon="6.78806">
        <ele>2135</ele>
        <time>2022-03-27T11:44:13Z</time>
      </trkpt>
      <trkpt lat="46.1319" lon="6.78812">
        <ele>2138</ele>
        <time>2022-03-27T11:44:44Z</time>
      </trkpt>
      <trkpt lat="46.13195" lon="6.78817">
        <ele>2144</ele>
        <time>2022-03-27T11:45:01Z</time>
      </trkpt>
      <trkpt lat="46.132" lon="6.78825">
        <ele>2146</ele>
        <time>2022-03-27T11:45:29Z</time>
      </trkpt>
      <trkpt lat="46.13209" lon="6.78839">
        <ele>2153</ele>
        <time>2022-03-27T11:46:06Z</time>
      </trkpt>
      <trkpt lat="46.13214" lon="6.78843">
        <ele>2154</ele>
        <time>2022-03-27T11:46:20Z</time>
      </trkpt>
      <trkpt lat="46.13219" lon="6.78851">
        <ele>2157</ele>
        <time>2022-03-27T11:46:47Z</time>
      </trkpt>
      <trkpt lat="46.13228" lon="6.7884">
        <ele>2160</ele>
        <time>2022-03-27T11:47:25Z</time>
      </trkpt>
      <trkpt lat="46.13233" lon="6.78841">
        <ele>2163</ele>
        <time>2022-03-27T11:48:35Z</time>
      </trkpt>
      <trkpt lat="46.13236" lon="6.78833">
        <ele>2164</ele>
        <time>2022-03-27T11:48:50Z</time>
      </trkpt>
      <trkpt lat="46.13238" lon="6.78826">
        <ele>2165</ele>
        <time>2022-03-27T11:49:06Z</time>
      </trkpt>
      <trkpt lat="46.13239" lon="6.78818">
        <ele>2166</ele>
        <time>2022-03-27T11:49:16Z</time>
      </trkpt>
      <trkpt lat="46.13242" lon="6.78802">
        <ele>2168</ele>
        <time>2022-03-27T11:49:44Z</time>
      </trkpt>
      <trkpt lat="46.13247" lon="6.78804">
        <ele>2171</ele>
        <time>2022-03-27T11:50:22Z</time>
      </trkpt>
      <trkpt lat="46.13249" lon="6.78811">
        <ele>2173</ele>
        <time>2022-03-27T11:50:55Z</time>
      </trkpt>
      <trkpt lat="46.13253" lon="6.78817">
        <ele>2179</ele>
        <time>2022-03-27T11:51:08Z</time>
      </trkpt>
      <trkpt lat="46.13255" lon="6.78825">
        <ele>2180</ele>
        <time>2022-03-27T11:51:18Z</time>
      </trkpt>
      <trkpt lat="46.13257" lon="6.78832">
        <ele>2183</ele>
        <time>2022-03-27T11:51:30Z</time>
      </trkpt>
      <trkpt lat="46.13261" lon="6.7885">
        <ele>2185</ele>
        <time>2022-03-27T11:51:52Z</time>
      </trkpt>
      <trkpt lat="46.13263" lon="6.78858">
        <ele>2187</ele>
        <time>2022-03-27T11:52:02Z</time>
      </trkpt>
      <trkpt lat="46.13265" lon="6.78866">
        <ele>2189</ele>
        <time>2022-03-27T11:52:19Z</time>
      </trkpt>
      <trkpt lat="46.13267" lon="6.78874">
        <ele>2190</ele>
        <time>2022-03-27T11:52:28Z</time>
      </trkpt>
      <trkpt lat="46.13267" lon="6.78882">
        <ele>2192</ele>
        <time>2022-03-27T11:52:38Z</time>
      </trkpt>
      <trkpt lat="46.1327" lon="6.7891">
        <ele>2195</ele>
        <time>2022-03-27T11:53:11Z</time>
      </trkpt>
      <trkpt lat="46.13269" lon="6.78921">
        <ele>2196</ele>
        <time>2022-03-27T11:53:24Z</time>
      </trkpt>
      <trkpt lat="46.13267" lon="6.78929">
        <ele>2196</ele>
        <time>2022-03-27T11:53:32Z</time>
      </trkpt>
      <trkpt lat="46.13268" lon="6.78937">
        <ele>2197</ele>
        <time>2022-03-27T11:53:42Z</time>
      </trkpt>
      <trkpt lat="46.13267" lon="6.78946">
        <ele>2199</ele>
        <time>2022-03-27T11:53:51Z</time>
      </trkpt>
      <trkpt lat="46.1327" lon="6.78956">
        <ele>2200</ele>
        <time>2022-03-27T11:54:07Z</time>
      </trkpt>
      <trkpt lat="46.13271" lon="6.78964">
        <ele>2202</ele>
        <time>2022-03-27T11:54:16Z</time>
      </trkpt>
      <trkpt lat="46.13273" lon="6.78973">
        <ele>2203</ele>
        <time>2022-03-27T11:54:31Z</time>
      </trkpt>
      <trkpt lat="46.13275" lon="6.7898">
        <ele>2204</ele>
        <time>2022-03-27T11:54:39Z</time>
      </trkpt>
      <trkpt lat="46.13275" lon="6.78991">
        <ele>2205</ele>
        <time>2022-03-27T11:54:52Z</time>
      </trkpt>
      <trkpt lat="46.13282" lon="6.79005">
        <ele>2206</ele>
        <time>2022-03-27T11:55:12Z</time>
      </trkpt>
      <trkpt lat="46.13284" lon="6.79013">
        <ele>2208</ele>
        <time>2022-03-27T11:55:25Z</time>
      </trkpt>
      <trkpt lat="46.13287" lon="6.79023">
        <ele>2209</ele>
        <time>2022-03-27T11:55:41Z</time>
      </trkpt>
      <trkpt lat="46.13292" lon="6.79041">
        <ele>2212</ele>
        <time>2022-03-27T11:56:05Z</time>
      </trkpt>
      <trkpt lat="46.13291" lon="6.7905">
        <ele>2214</ele>
        <time>2022-03-27T11:56:17Z</time>
      </trkpt>
      <trkpt lat="46.13291" lon="6.79059">
        <ele>2215</ele>
        <time>2022-03-27T11:56:30Z</time>
      </trkpt>
      <trkpt lat="46.1329" lon="6.7907">
        <ele>2216</ele>
        <time>2022-03-27T11:56:47Z</time>
      </trkpt>
      <trkpt lat="46.1329" lon="6.79079">
        <ele>2218</ele>
        <time>2022-03-27T11:57:01Z</time>
      </trkpt>
      <trkpt lat="46.13293" lon="6.79087">
        <ele>2219</ele>
        <time>2022-03-27T11:57:16Z</time>
      </trkpt>
      <trkpt lat="46.13296" lon="6.79094">
        <ele>2220</ele>
        <time>2022-03-27T11:57:31Z</time>
      </trkpt>
      <trkpt lat="46.13298" lon="6.79101">
        <ele>2222</ele>
        <time>2022-03-27T11:57:49Z</time>
      </trkpt>
      <trkpt lat="46.13315" lon="6.7912">
        <ele>2227</ele>
        <time>2022-03-27T11:58:31Z</time>
      </trkpt>
      <trkpt lat="46.13319" lon="6.79126">
        <ele>2229</ele>
        <time>2022-03-27T11:58:43Z</time>
      </trkpt>
      <trkpt lat="46.13324" lon="6.79134">
        <ele>2231</ele>
        <time>2022-03-27T11:58:58Z</time>
      </trkpt>
      <trkpt lat="46.13332" lon="6.79146">
        <ele>2233</ele>
        <time>2022-03-27T11:59:16Z</time>
      </trkpt>
      <trkpt lat="46.13335" lon="6.79152">
        <ele>2234</ele>
        <time>2022-03-27T11:59:30Z</time>
      </trkpt>
      <trkpt lat="46.1334" lon="6.79162">
        <ele>2236</ele>
        <time>2022-03-27T11:59:46Z</time>
      </trkpt>
      <trkpt lat="46.13348" lon="6.79174">
        <ele>2239</ele>
        <time>2022-03-27T12:00:05Z</time>
      </trkpt>
      <trkpt lat="46.13356" lon="6.79187">
        <ele>2241</ele>
        <time>2022-03-27T12:00:32Z</time>
      </trkpt>
      <trkpt lat="46.13361" lon="6.79192">
        <ele>2243</ele>
        <time>2022-03-27T12:00:52Z</time>
      </trkpt>
      <trkpt lat="46.13357" lon="6.79199">
        <ele>2244</ele>
        <time>2022-03-27T12:01:38Z</time>
      </trkpt>
      <trkpt lat="46.13362" lon="6.79207">
        <ele>2247</ele>
        <time>2022-03-27T12:03:04Z</time>
      </trkpt>
      <trkpt lat="46.13368" lon="6.79215">
        <ele>2248</ele>
        <time>2022-03-27T12:03:21Z</time>
      </trkpt>
      <trkpt lat="46.13375" lon="6.79229">
        <ele>2251</ele>
        <time>2022-03-27T12:03:44Z</time>
      </trkpt>
      <trkpt lat="46.13378" lon="6.79236">
        <ele>2252</ele>
        <time>2022-03-27T12:03:54Z</time>
      </trkpt>
      <trkpt lat="46.13383" lon="6.79252">
        <ele>2254</ele>
        <time>2022-03-27T12:04:22Z</time>
      </trkpt>
      <trkpt lat="46.13387" lon="6.79258">
        <ele>2255</ele>
        <time>2022-03-27T12:04:35Z</time>
      </trkpt>
      <trkpt lat="46.13389" lon="6.79266">
        <ele>2256</ele>
        <time>2022-03-27T12:04:47Z</time>
      </trkpt>
      <trkpt lat="46.13391" lon="6.79276">
        <ele>2258</ele>
        <time>2022-03-27T12:04:58Z</time>
      </trkpt>
      <trkpt lat="46.13393" lon="6.79283">
        <ele>2259</ele>
        <time>2022-03-27T12:05:08Z</time>
      </trkpt>
      <trkpt lat="46.13396" lon="6.7929">
        <ele>2261</ele>
        <time>2022-03-27T12:05:20Z</time>
      </trkpt>
      <trkpt lat="46.13399" lon="6.79297">
        <ele>2262</ele>
        <time>2022-03-27T12:05:31Z</time>
      </trkpt>
      <trkpt lat="46.13403" lon="6.79304">
        <ele>2263</ele>
        <time>2022-03-27T12:05:43Z</time>
      </trkpt>
      <trkpt lat="46.1341" lon="6.79317">
        <ele>2266</ele>
        <time>2022-03-27T12:06:08Z</time>
      </trkpt>
      <trkpt lat="46.13414" lon="6.79324">
        <ele>2266</ele>
        <time>2022-03-27T12:06:19Z</time>
      </trkpt>
      <trkpt lat="46.13417" lon="6.79333">
        <ele>2268</ele>
        <time>2022-03-27T12:06:33Z</time>
      </trkpt>
      <trkpt lat="46.13421" lon="6.7934">
        <ele>2269</ele>
        <time>2022-03-27T12:06:45Z</time>
      </trkpt>
      <trkpt lat="46.13423" lon="6.7935">
        <ele>2271</ele>
        <time>2022-03-27T12:06:57Z</time>
      </trkpt>
      <trkpt lat="46.13427" lon="6.79356">
        <ele>2271</ele>
        <time>2022-03-27T12:07:05Z</time>
      </trkpt>
      <trkpt lat="46.13431" lon="6.79361">
        <ele>2273</ele>
        <time>2022-03-27T12:07:14Z</time>
      </trkpt>
      <trkpt lat="46.13436" lon="6.79369">
        <ele>2274</ele>
        <time>2022-03-27T12:07:24Z</time>
      </trkpt>
      <trkpt lat="46.13438" lon="6.79379">
        <ele>2275</ele>
        <time>2022-03-27T12:07:32Z</time>
      </trkpt>
      <trkpt lat="46.13438" lon="6.79387">
        <ele>2276</ele>
        <time>2022-03-27T12:07:46Z</time>
      </trkpt>
      <trkpt lat="46.13438" lon="6.79395">
        <ele>2277</ele>
        <time>2022-03-27T12:07:58Z</time>
      </trkpt>
      <trkpt lat="46.13445" lon="6.79411">
        <ele>2280</ele>
        <time>2022-03-27T12:08:35Z</time>
      </trkpt>
      <trkpt lat="46.13449" lon="6.7942">
        <ele>2281</ele>
        <time>2022-03-27T12:08:47Z</time>
      </trkpt>
      <trkpt lat="46.13452" lon="6.79427">
        <ele>2283</ele>
        <time>2022-03-27T12:09:01Z</time>
      </trkpt>
      <trkpt lat="46.13453" lon="6.79435">
        <ele>2283</ele>
        <time>2022-03-27T12:09:12Z</time>
      </trkpt>
      <trkpt lat="46.13454" lon="6.79443">
        <ele>2285</ele>
        <time>2022-03-27T12:09:25Z</time>
      </trkpt>
      <trkpt lat="46.13456" lon="6.7945">
        <ele>2286</ele>
        <time>2022-03-27T12:09:38Z</time>
      </trkpt>
      <trkpt lat="46.13455" lon="6.79467">
        <ele>2290</ele>
        <time>2022-03-27T12:10:09Z</time>
      </trkpt>
      <trkpt lat="46.13456" lon="6.79474">
        <ele>2291</ele>
        <time>2022-03-27T12:10:21Z</time>
      </trkpt>
      <trkpt lat="46.13456" lon="6.79483">
        <ele>2292</ele>
        <time>2022-03-27T12:10:39Z</time>
      </trkpt>
      <trkpt lat="46.13456" lon="6.7949">
        <ele>2295</ele>
        <time>2022-03-27T12:10:55Z</time>
      </trkpt>
      <trkpt lat="46.13459" lon="6.79497">
        <ele>2296</ele>
        <time>2022-03-27T12:11:17Z</time>
      </trkpt>
      <trkpt lat="46.1346" lon="6.79513">
        <ele>2300</ele>
        <time>2022-03-27T12:11:48Z</time>
      </trkpt>
      <trkpt lat="46.1346" lon="6.79521">
        <ele>2304</ele>
        <time>2022-03-27T12:12:06Z</time>
      </trkpt>
      <trkpt lat="46.1346" lon="6.7953">
        <ele>2304</ele>
        <time>2022-03-27T12:12:21Z</time>
      </trkpt>
      <trkpt lat="46.13459" lon="6.79546">
        <ele>2308</ele>
        <time>2022-03-27T12:12:53Z</time>
      </trkpt>
      <trkpt lat="46.13458" lon="6.79562">
        <ele>2310</ele>
        <time>2022-03-27T12:13:21Z</time>
      </trkpt>
      <trkpt lat="46.13458" lon="6.7957">
        <ele>2313</ele>
        <time>2022-03-27T12:13:36Z</time>
      </trkpt>
      <trkpt lat="46.13457" lon="6.79578">
        <ele>2314</ele>
        <time>2022-03-27T12:13:52Z</time>
      </trkpt>
      <trkpt lat="46.13457" lon="6.79586">
        <ele>2317</ele>
        <time>2022-03-27T12:14:06Z</time>
      </trkpt>
      <trkpt lat="46.13459" lon="6.79594">
        <ele>2317</ele>
        <time>2022-03-27T12:14:17Z</time>
      </trkpt>
      <trkpt lat="46.13462" lon="6.7961">
        <ele>2321</ele>
        <time>2022-03-27T12:14:45Z</time>
      </trkpt>
      <trkpt lat="46.13465" lon="6.79617">
        <ele>2323</ele>
        <time>2022-03-27T12:15:03Z</time>
      </trkpt>
      <trkpt lat="46.13467" lon="6.79624">
        <ele>2324</ele>
        <time>2022-03-27T12:15:16Z</time>
      </trkpt>
      <trkpt lat="46.13468" lon="6.79633">
        <ele>2327</ele>
        <time>2022-03-27T12:15:33Z</time>
      </trkpt>
      <trkpt lat="46.13469" lon="6.79641">
        <ele>2328</ele>
        <time>2022-03-27T12:15:56Z</time>
      </trkpt>
      <trkpt lat="46.13473" lon="6.79647">
        <ele>2330</ele>
        <time>2022-03-27T12:16:11Z</time>
      </trkpt>
      <trkpt lat="46.13485" lon="6.79665">
        <ele>2333</ele>
        <time>2022-03-27T12:16:43Z</time>
      </trkpt>
      <trkpt lat="46.13492" lon="6.79678">
        <ele>2335</ele>
        <time>2022-03-27T12:17:05Z</time>
      </trkpt>
      <trkpt lat="46.13499" lon="6.79695">
        <ele>2338</ele>
        <time>2022-03-27T12:17:26Z</time>
      </trkpt>
      <trkpt lat="46.13502" lon="6.79702">
        <ele>2339</ele>
        <time>2022-03-27T12:17:36Z</time>
      </trkpt>
      <trkpt lat="46.13505" lon="6.79709">
        <ele>2340</ele>
        <time>2022-03-27T12:17:49Z</time>
      </trkpt>
      <trkpt lat="46.13509" lon="6.79715">
        <ele>2341</ele>
        <time>2022-03-27T12:18:00Z</time>
      </trkpt>
      <trkpt lat="46.13518" lon="6.79725">
        <ele>2344</ele>
        <time>2022-03-27T12:18:27Z</time>
      </trkpt>
      <trkpt lat="46.13528" lon="6.79732">
        <ele>2346</ele>
        <time>2022-03-27T12:18:53Z</time>
      </trkpt>
      <trkpt lat="46.13541" lon="6.79748">
        <ele>2350</ele>
        <time>2022-03-27T12:19:24Z</time>
      </trkpt>
      <trkpt lat="46.13546" lon="6.79754">
        <ele>2351</ele>
        <time>2022-03-27T12:19:40Z</time>
      </trkpt>
      <trkpt lat="46.13549" lon="6.79757">
        <ele>2353</ele>
        <time>2022-03-27T12:19:49Z</time>
      </trkpt>
      <trkpt lat="46.13553" lon="6.79763">
        <ele>2355</ele>
        <time>2022-03-27T12:19:59Z</time>
      </trkpt>
      <trkpt lat="46.13557" lon="6.79768">
        <ele>2356</ele>
        <time>2022-03-27T12:20:13Z</time>
      </trkpt>
      <trkpt lat="46.13561" lon="6.79774">
        <ele>2358</ele>
        <time>2022-03-27T12:20:33Z</time>
      </trkpt>
      <trkpt lat="46.13553" lon="6.79787">
        <ele>2361</ele>
        <time>2022-03-27T12:21:04Z</time>
      </trkpt>
      <trkpt lat="46.1355" lon="6.79794">
        <ele>2362</ele>
        <time>2022-03-27T12:21:19Z</time>
      </trkpt>
      <trkpt lat="46.13548" lon="6.79802">
        <ele>2364</ele>
        <time>2022-03-27T12:21:32Z</time>
      </trkpt>
      <trkpt lat="46.13544" lon="6.79818">
        <ele>2366</ele>
        <time>2022-03-27T12:21:57Z</time>
      </trkpt>
      <trkpt lat="46.1354" lon="6.79823">
        <ele>2367</ele>
        <time>2022-03-27T12:22:06Z</time>
      </trkpt>
      <trkpt lat="46.13538" lon="6.7983">
        <ele>2369</ele>
        <time>2022-03-27T12:22:22Z</time>
      </trkpt>
      <trkpt lat="46.13538" lon="6.79838">
        <ele>2371</ele>
        <time>2022-03-27T12:22:38Z</time>
      </trkpt>
      <trkpt lat="46.13539" lon="6.79844">
        <ele>2373</ele>
        <time>2022-03-27T12:22:51Z</time>
      </trkpt>
      <trkpt lat="46.13544" lon="6.79847">
        <ele>2374</ele>
        <time>2022-03-27T12:23:05Z</time>
      </trkpt>
      <trkpt lat="46.1355" lon="6.79854">
        <ele>2375</ele>
        <time>2022-03-27T12:23:18Z</time>
      </trkpt>
      <trkpt lat="46.13554" lon="6.7986">
        <ele>2377</ele>
        <time>2022-03-27T12:23:32Z</time>
      </trkpt>
      <trkpt lat="46.13557" lon="6.79867">
        <ele>2378</ele>
        <time>2022-03-27T12:23:43Z</time>
      </trkpt>
      <trkpt lat="46.1356" lon="6.79873">
        <ele>2380</ele>
        <time>2022-03-27T12:23:51Z</time>
      </trkpt>
      <trkpt lat="46.13561" lon="6.79881">
        <ele>2380</ele>
        <time>2022-03-27T12:24:03Z</time>
      </trkpt>
      <trkpt lat="46.13563" lon="6.79889">
        <ele>2382</ele>
        <time>2022-03-27T12:24:13Z</time>
      </trkpt>
      <trkpt lat="46.13561" lon="6.79897">
        <ele>2383</ele>
        <time>2022-03-27T12:24:27Z</time>
      </trkpt>
      <trkpt lat="46.13563" lon="6.79914">
        <ele>2386</ele>
        <time>2022-03-27T12:24:55Z</time>
      </trkpt>
      <trkpt lat="46.13564" lon="6.79923">
        <ele>2389</ele>
        <time>2022-03-27T12:25:08Z</time>
      </trkpt>
      <trkpt lat="46.13555" lon="6.79945">
        <ele>2392</ele>
        <time>2022-03-27T12:25:40Z</time>
      </trkpt>
      <trkpt lat="46.13555" lon="6.79954">
        <ele>2392</ele>
        <time>2022-03-27T12:25:50Z</time>
      </trkpt>
      <trkpt lat="46.13554" lon="6.79962">
        <ele>2393</ele>
        <time>2022-03-27T12:25:59Z</time>
      </trkpt>
      <trkpt lat="46.13554" lon="6.79968">
        <ele>2394</ele>
        <time>2022-03-27T12:26:05Z</time>
      </trkpt>
      <trkpt lat="46.13554" lon="6.79986">
        <ele>2397</ele>
        <time>2022-03-27T12:26:28Z</time>
      </trkpt>
      <trkpt lat="46.13557" lon="6.79994">
        <ele>2398</ele>
        <time>2022-03-27T12:26:44Z</time>
      </trkpt>
      <trkpt lat="46.13555" lon="6.80002">
        <ele>2399</ele>
        <time>2022-03-27T12:27:32Z</time>
      </trkpt>
      <trkpt lat="46.13553" lon="6.80015">
        <ele>2401</ele>
        <time>2022-03-27T12:27:44Z</time>
      </trkpt>
      <trkpt lat="46.13553" lon="6.80029">
        <ele>2402</ele>
        <time>2022-03-27T12:28:03Z</time>
      </trkpt>
      <trkpt lat="46.13549" lon="6.80033">
        <ele>2403</ele>
        <time>2022-03-27T12:28:37Z</time>
      </trkpt>
      <trkpt lat="46.13545" lon="6.80034">
        <ele>2403</ele>
        <time>2022-03-27T12:29:06Z</time>
      </trkpt>
      <trkpt lat="46.13538" lon="6.80034">
        <ele>2403</ele>
        <time>2022-03-27T12:29:51Z</time>
      </trkpt>
      <trkpt lat="46.13534" lon="6.80035">
        <ele>2402</ele>
        <time>2022-03-27T12:30:27Z</time>
      </trkpt>
      <trkpt lat="46.13529" lon="6.80036">
        <ele>2402</ele>
        <time>2022-03-27T12:33:03Z</time>
      </trkpt>
      <trkpt lat="46.13539" lon="6.80037">
        <ele>2402</ele>
        <time>2022-03-27T12:35:46Z</time>
      </trkpt>
      <trkpt lat="46.13557" lon="6.80047">
        <ele>2403</ele>
        <time>2022-03-27T12:47:21Z</time>
      </trkpt>
      <trkpt lat="46.13554" lon="6.80044">
        <ele>2403</ele>
        <time>2022-03-27T12:47:55Z</time>
      </trkpt>
      <trkpt lat="46.1354" lon="6.80039">
        <ele>2403</ele>
        <time>2022-03-27T12:48:04Z</time>
      </trkpt>
      <trkpt lat="46.13496" lon="6.8002">
        <ele>2402</ele>
        <time>2022-03-27T12:48:29Z</time>
      </trkpt>
      <trkpt lat="46.13518" lon="6.80028">
        <ele>2401</ele>
        <time>2022-03-27T12:49:25Z</time>
      </trkpt>
      <trkpt lat="46.13537" lon="6.80035">
        <ele>2401</ele>
        <time>2022-03-27T12:51:03Z</time>
      </trkpt>
      <trkpt lat="46.1354" lon="6.8004">
        <ele>2402</ele>
        <time>2022-03-27T13:06:16Z</time>
      </trkpt>
      <trkpt lat="46.13546" lon="6.80039">
        <ele>2404</ele>
        <time>2022-03-27T13:16:00Z</time>
      </trkpt>
      <trkpt lat="46.13544" lon="6.80029">
        <ele>2410</ele>
        <time>2022-03-27T13:21:38Z</time>
      </trkpt>
      <trkpt lat="46.13538" lon="6.80023">
        <ele>2412</ele>
        <time>2022-03-27T13:21:45Z</time>
      </trkpt>
      <trkpt lat="46.13539" lon="6.80026">
        <ele>2415</ele>
        <time>2022-03-27T13:23:24Z</time>
      </trkpt>
      <trkpt lat="46.13544" lon="6.80033">
        <ele>2414</ele>
        <time>2022-03-27T13:23:37Z</time>
      </trkpt>
      <trkpt lat="46.13546" lon="6.8004">
        <ele>2413</ele>
        <time>2022-03-27T13:24:57Z</time>
      </trkpt>
      <trkpt lat="46.13548" lon="6.80036">
        <ele>2413</ele>
        <time>2022-03-27T13:25:25Z</time>
      </trkpt>
      <trkpt lat="46.13551" lon="6.80029">
        <ele>2413</ele>
        <time>2022-03-27T13:26:30Z</time>
      </trkpt>
      <trkpt lat="46.13552" lon="6.8001">
        <ele>2413</ele>
        <time>2022-03-27T13:27:12Z</time>
      </trkpt>
      <trkpt lat="46.13559" lon="6.7997">
        <ele>2411</ele>
        <time>2022-03-27T13:27:20Z</time>
      </trkpt>
      <trkpt lat="46.13557" lon="6.79955">
        <ele>2410</ele>
        <time>2022-03-27T13:27:22Z</time>
      </trkpt>
      <trkpt lat="46.13552" lon="6.79941">
        <ele>2409</ele>
        <time>2022-03-27T13:27:24Z</time>
      </trkpt>
      <trkpt lat="46.13556" lon="6.79916">
        <ele>2408</ele>
        <time>2022-03-27T13:27:30Z</time>
      </trkpt>
      <trkpt lat="46.1356" lon="6.79892">
        <ele>2412</ele>
        <time>2022-03-27T13:28:18Z</time>
      </trkpt>
      <trkpt lat="46.13556" lon="6.7987">
        <ele>2408</ele>
        <time>2022-03-27T13:28:21Z</time>
      </trkpt>
      <trkpt lat="46.1355" lon="6.7985">
        <ele>2406</ele>
        <time>2022-03-27T13:28:25Z</time>
      </trkpt>
      <trkpt lat="46.13541" lon="6.79834">
        <ele>2403</ele>
        <time>2022-03-27T13:28:28Z</time>
      </trkpt>
      <trkpt lat="46.1354" lon="6.79813">
        <ele>2402</ele>
        <time>2022-03-27T13:28:31Z</time>
      </trkpt>
      <trkpt lat="46.13532" lon="6.79792">
        <ele>2399</ele>
        <time>2022-03-27T13:28:34Z</time>
      </trkpt>
      <trkpt lat="46.13518" lon="6.79753">
        <ele>2396</ele>
        <time>2022-03-27T13:28:38Z</time>
      </trkpt>
      <trkpt lat="46.13514" lon="6.7973">
        <ele>2392</ele>
        <time>2022-03-27T13:28:40Z</time>
      </trkpt>
      <trkpt lat="46.13509" lon="6.79709">
        <ele>2386</ele>
        <time>2022-03-27T13:28:42Z</time>
      </trkpt>
      <trkpt lat="46.13502" lon="6.79691">
        <ele>2383</ele>
        <time>2022-03-27T13:28:44Z</time>
      </trkpt>
      <trkpt lat="46.13494" lon="6.79671">
        <ele>2375</ele>
        <time>2022-03-27T13:28:47Z</time>
      </trkpt>
      <trkpt lat="46.13487" lon="6.79657">
        <ele>2371</ele>
        <time>2022-03-27T13:28:49Z</time>
      </trkpt>
      <trkpt lat="46.13483" lon="6.79647">
        <ele>2366</ele>
        <time>2022-03-27T13:28:53Z</time>
      </trkpt>
      <trkpt lat="46.13482" lon="6.79638">
        <ele>2364</ele>
        <time>2022-03-27T13:29:02Z</time>
      </trkpt>
      <trkpt lat="46.13478" lon="6.79631">
        <ele>2361</ele>
        <time>2022-03-27T13:29:20Z</time>
      </trkpt>
      <trkpt lat="46.13473" lon="6.79615">
        <ele>2359</ele>
        <time>2022-03-27T13:29:29Z</time>
      </trkpt>
      <trkpt lat="46.13468" lon="6.79597">
        <ele>2354</ele>
        <time>2022-03-27T13:29:32Z</time>
      </trkpt>
      <trkpt lat="46.13466" lon="6.79579">
        <ele>2350</ele>
        <time>2022-03-27T13:29:35Z</time>
      </trkpt>
      <trkpt lat="46.13461" lon="6.79562">
        <ele>2345</ele>
        <time>2022-03-27T13:29:38Z</time>
      </trkpt>
      <trkpt lat="46.1346" lon="6.79545">
        <ele>2342</ele>
        <time>2022-03-27T13:29:40Z</time>
      </trkpt>
      <trkpt lat="46.13465" lon="6.79529">
        <ele>2338</ele>
        <time>2022-03-27T13:29:42Z</time>
      </trkpt>
      <trkpt lat="46.13473" lon="6.79504">
        <ele>2334</ele>
        <time>2022-03-27T13:29:45Z</time>
      </trkpt>
      <trkpt lat="46.13478" lon="6.7949">
        <ele>2332</ele>
        <time>2022-03-27T13:29:47Z</time>
      </trkpt>
      <trkpt lat="46.13476" lon="6.79467">
        <ele>2331</ele>
        <time>2022-03-27T13:29:50Z</time>
      </trkpt>
      <trkpt lat="46.13468" lon="6.79453">
        <ele>2328</ele>
        <time>2022-03-27T13:29:52Z</time>
      </trkpt>
      <trkpt lat="46.13461" lon="6.79432">
        <ele>2326</ele>
        <time>2022-03-27T13:29:54Z</time>
      </trkpt>
      <trkpt lat="46.13462" lon="6.79416">
        <ele>2322</ele>
        <time>2022-03-27T13:29:56Z</time>
      </trkpt>
      <trkpt lat="46.13448" lon="6.7939">
        <ele>2319</ele>
        <time>2022-03-27T13:29:59Z</time>
      </trkpt>
      <trkpt lat="46.1344" lon="6.79371">
        <ele>2314</ele>
        <time>2022-03-27T13:30:01Z</time>
      </trkpt>
      <trkpt lat="46.13425" lon="6.79334">
        <ele>2309</ele>
        <time>2022-03-27T13:30:05Z</time>
      </trkpt>
      <trkpt lat="46.1342" lon="6.79316">
        <ele>2306</ele>
        <time>2022-03-27T13:30:07Z</time>
      </trkpt>
      <trkpt lat="46.13419" lon="6.79302">
        <ele>2303</ele>
        <time>2022-03-27T13:30:09Z</time>
      </trkpt>
      <trkpt lat="46.13411" lon="6.79284">
        <ele>2298</ele>
        <time>2022-03-27T13:31:46Z</time>
      </trkpt>
      <trkpt lat="46.13405" lon="6.79266">
        <ele>2291</ele>
        <time>2022-03-27T13:31:49Z</time>
      </trkpt>
      <trkpt lat="46.13397" lon="6.79254">
        <ele>2289</ele>
        <time>2022-03-27T13:31:52Z</time>
      </trkpt>
      <trkpt lat="46.13386" lon="6.79237">
        <ele>2283</ele>
        <time>2022-03-27T13:31:55Z</time>
      </trkpt>
      <trkpt lat="46.13367" lon="6.79183">
        <ele>2276</ele>
        <time>2022-03-27T13:32:00Z</time>
      </trkpt>
      <trkpt lat="46.13366" lon="6.79173">
        <ele>2274</ele>
        <time>2022-03-27T13:32:01Z</time>
      </trkpt>
      <trkpt lat="46.1336" lon="6.79166">
        <ele>2273</ele>
        <time>2022-03-27T13:32:02Z</time>
      </trkpt>
      <trkpt lat="46.13352" lon="6.79153">
        <ele>2269</ele>
        <time>2022-03-27T13:32:04Z</time>
      </trkpt>
      <trkpt lat="46.13344" lon="6.79141">
        <ele>2267</ele>
        <time>2022-03-27T13:32:06Z</time>
      </trkpt>
      <trkpt lat="46.1333" lon="6.79117">
        <ele>2262</ele>
        <time>2022-03-27T13:32:10Z</time>
      </trkpt>
      <trkpt lat="46.13325" lon="6.79105">
        <ele>2261</ele>
        <time>2022-03-27T13:32:12Z</time>
      </trkpt>
      <trkpt lat="46.13319" lon="6.79083">
        <ele>2255</ele>
        <time>2022-03-27T13:34:24Z</time>
      </trkpt>
      <trkpt lat="46.13309" lon="6.79068">
        <ele>2248</ele>
        <time>2022-03-27T13:34:27Z</time>
      </trkpt>
      <trkpt lat="46.13297" lon="6.79048">
        <ele>2243</ele>
        <time>2022-03-27T13:34:30Z</time>
      </trkpt>
      <trkpt lat="46.13292" lon="6.79026">
        <ele>2241</ele>
        <time>2022-03-27T13:34:32Z</time>
      </trkpt>
      <trkpt lat="46.13287" lon="6.79009">
        <ele>2237</ele>
        <time>2022-03-27T13:34:34Z</time>
      </trkpt>
      <trkpt lat="46.1328" lon="6.78994">
        <ele>2235</ele>
        <time>2022-03-27T13:34:36Z</time>
      </trkpt>
      <trkpt lat="46.13277" lon="6.78979">
        <ele>2232</ele>
        <time>2022-03-27T13:34:38Z</time>
      </trkpt>
      <trkpt lat="46.13273" lon="6.78936">
        <ele>2226</ele>
        <time>2022-03-27T13:34:43Z</time>
      </trkpt>
      <trkpt lat="46.13277" lon="6.78862">
        <ele>2221</ele>
        <time>2022-03-27T13:34:50Z</time>
      </trkpt>
      <trkpt lat="46.13275" lon="6.78844">
        <ele>2217</ele>
        <time>2022-03-27T13:34:52Z</time>
      </trkpt>
      <trkpt lat="46.13276" lon="6.78836">
        <ele>2216</ele>
        <time>2022-03-27T13:34:53Z</time>
      </trkpt>
      <trkpt lat="46.13275" lon="6.78826">
        <ele>2214</ele>
        <time>2022-03-27T13:34:56Z</time>
      </trkpt>
      <trkpt lat="46.13272" lon="6.78814">
        <ele>2212</ele>
        <time>2022-03-27T13:35:20Z</time>
      </trkpt>
      <trkpt lat="46.13265" lon="6.78789">
        <ele>2207</ele>
        <time>2022-03-27T13:35:24Z</time>
      </trkpt>
      <trkpt lat="46.13264" lon="6.78774">
        <ele>2205</ele>
        <time>2022-03-27T13:35:27Z</time>
      </trkpt>
      <trkpt lat="46.13257" lon="6.78764">
        <ele>2204</ele>
        <time>2022-03-27T13:35:36Z</time>
      </trkpt>
      <trkpt lat="46.13252" lon="6.78749">
        <ele>2200</ele>
        <time>2022-03-27T13:35:38Z</time>
      </trkpt>
      <trkpt lat="46.13251" lon="6.78733">
        <ele>2199</ele>
        <time>2022-03-27T13:35:40Z</time>
      </trkpt>
      <trkpt lat="46.13246" lon="6.78715">
        <ele>2198</ele>
        <time>2022-03-27T13:36:03Z</time>
      </trkpt>
      <trkpt lat="46.13247" lon="6.78701">
        <ele>2193</ele>
        <time>2022-03-27T13:36:05Z</time>
      </trkpt>
      <trkpt lat="46.13243" lon="6.78686">
        <ele>2191</ele>
        <time>2022-03-27T13:36:09Z</time>
      </trkpt>
      <trkpt lat="46.13245" lon="6.78668">
        <ele>2187</ele>
        <time>2022-03-27T13:36:11Z</time>
      </trkpt>
      <trkpt lat="46.13244" lon="6.78648">
        <ele>2185</ele>
        <time>2022-03-27T13:36:13Z</time>
      </trkpt>
      <trkpt lat="46.13242" lon="6.78629">
        <ele>2181</ele>
        <time>2022-03-27T13:36:15Z</time>
      </trkpt>
      <trkpt lat="46.13239" lon="6.78611">
        <ele>2178</ele>
        <time>2022-03-27T13:36:17Z</time>
      </trkpt>
      <trkpt lat="46.13225" lon="6.78582">
        <ele>2176</ele>
        <time>2022-03-27T13:36:20Z</time>
      </trkpt>
      <trkpt lat="46.13204" lon="6.78572">
        <ele>2175</ele>
        <time>2022-03-27T13:36:23Z</time>
      </trkpt>
      <trkpt lat="46.13195" lon="6.78562">
        <ele>2173</ele>
        <time>2022-03-27T13:36:26Z</time>
      </trkpt>
      <trkpt lat="46.13185" lon="6.7856">
        <ele>2170</ele>
        <time>2022-03-27T13:36:51Z</time>
      </trkpt>
      <trkpt lat="46.13174" lon="6.78565">
        <ele>2168</ele>
        <time>2022-03-27T13:36:54Z</time>
      </trkpt>
      <trkpt lat="46.13162" lon="6.78564">
        <ele>2153</ele>
        <time>2022-03-27T13:36:57Z</time>
      </trkpt>
      <trkpt lat="46.13153" lon="6.78564">
        <ele>2147</ele>
        <time>2022-03-27T13:36:59Z</time>
      </trkpt>
      <trkpt lat="46.13142" lon="6.78556">
        <ele>2143</ele>
        <time>2022-03-27T13:37:01Z</time>
      </trkpt>
      <trkpt lat="46.13137" lon="6.78537">
        <ele>2139</ele>
        <time>2022-03-27T13:37:03Z</time>
      </trkpt>
      <trkpt lat="46.13127" lon="6.7852">
        <ele>2137</ele>
        <time>2022-03-27T13:37:06Z</time>
      </trkpt>
      <trkpt lat="46.13121" lon="6.78504">
        <ele>2135</ele>
        <time>2022-03-27T13:37:08Z</time>
      </trkpt>
      <trkpt lat="46.1311" lon="6.7849">
        <ele>2134</ele>
        <time>2022-03-27T13:37:11Z</time>
      </trkpt>
      <trkpt lat="46.13099" lon="6.78482">
        <ele>2132</ele>
        <time>2022-03-27T13:37:13Z</time>
      </trkpt>
      <trkpt lat="46.1309" lon="6.78472">
        <ele>2130</ele>
        <time>2022-03-27T13:37:15Z</time>
      </trkpt>
      <trkpt lat="46.13083" lon="6.78458">
        <ele>2128</ele>
        <time>2022-03-27T13:37:17Z</time>
      </trkpt>
      <trkpt lat="46.1308" lon="6.7843">
        <ele>2124</ele>
        <time>2022-03-27T13:37:22Z</time>
      </trkpt>
      <trkpt lat="46.13079" lon="6.78416">
        <ele>2122</ele>
        <time>2022-03-27T13:37:43Z</time>
      </trkpt>
      <trkpt lat="46.13074" lon="6.78377">
        <ele>2115</ele>
        <time>2022-03-27T13:37:49Z</time>
      </trkpt>
      <trkpt lat="46.13066" lon="6.78344">
        <ele>2110</ele>
        <time>2022-03-27T13:37:53Z</time>
      </trkpt>
      <trkpt lat="46.13061" lon="6.78329">
        <ele>2109</ele>
        <time>2022-03-27T13:37:55Z</time>
      </trkpt>
      <trkpt lat="46.13033" lon="6.78306">
        <ele>2106</ele>
        <time>2022-03-27T13:38:00Z</time>
      </trkpt>
      <trkpt lat="46.13022" lon="6.78298">
        <ele>2103</ele>
        <time>2022-03-27T13:38:02Z</time>
      </trkpt>
      <trkpt lat="46.13017" lon="6.7828">
        <ele>2100</ele>
        <time>2022-03-27T13:38:04Z</time>
      </trkpt>
      <trkpt lat="46.13015" lon="6.78264">
        <ele>2095</ele>
        <time>2022-03-27T13:38:07Z</time>
      </trkpt>
      <trkpt lat="46.13006" lon="6.78254">
        <ele>2093</ele>
        <time>2022-03-27T13:38:46Z</time>
      </trkpt>
      <trkpt lat="46.12997" lon="6.78248">
        <ele>2086</ele>
        <time>2022-03-27T13:38:49Z</time>
      </trkpt>
      <trkpt lat="46.12992" lon="6.78239">
        <ele>2083</ele>
        <time>2022-03-27T13:38:51Z</time>
      </trkpt>
      <trkpt lat="46.12971" lon="6.78227">
        <ele>2077</ele>
        <time>2022-03-27T13:38:56Z</time>
      </trkpt>
      <trkpt lat="46.12964" lon="6.78232">
        <ele>2076</ele>
        <time>2022-03-27T13:38:58Z</time>
      </trkpt>
      <trkpt lat="46.12957" lon="6.78223">
        <ele>2074</ele>
        <time>2022-03-27T13:39:02Z</time>
      </trkpt>
      <trkpt lat="46.12954" lon="6.78211">
        <ele>2073</ele>
        <time>2022-03-27T13:39:04Z</time>
      </trkpt>
      <trkpt lat="46.12946" lon="6.78206">
        <ele>2072</ele>
        <time>2022-03-27T13:39:28Z</time>
      </trkpt>
      <trkpt lat="46.12944" lon="6.78221">
        <ele>2071</ele>
        <time>2022-03-27T13:39:30Z</time>
      </trkpt>
      <trkpt lat="46.12943" lon="6.78245">
        <ele>2064</ele>
        <time>2022-03-27T13:39:34Z</time>
      </trkpt>
      <trkpt lat="46.1294" lon="6.78255">
        <ele>2060</ele>
        <time>2022-03-27T13:39:37Z</time>
      </trkpt>
      <trkpt lat="46.12933" lon="6.78257">
        <ele>2056</ele>
        <time>2022-03-27T13:39:47Z</time>
      </trkpt>
      <trkpt lat="46.12923" lon="6.78264">
        <ele>2054</ele>
        <time>2022-03-27T13:40:01Z</time>
      </trkpt>
      <trkpt lat="46.1291" lon="6.78274">
        <ele>2052</ele>
        <time>2022-03-27T13:40:06Z</time>
      </trkpt>
      <trkpt lat="46.12907" lon="6.78286">
        <ele>2047</ele>
        <time>2022-03-27T13:40:08Z</time>
      </trkpt>
      <trkpt lat="46.12903" lon="6.78299">
        <ele>2045</ele>
        <time>2022-03-27T13:40:10Z</time>
      </trkpt>
      <trkpt lat="46.12904" lon="6.7831">
        <ele>2041</ele>
        <time>2022-03-27T13:40:13Z</time>
      </trkpt>
      <trkpt lat="46.12907" lon="6.78322">
        <ele>2039</ele>
        <time>2022-03-27T13:40:42Z</time>
      </trkpt>
      <trkpt lat="46.12911" lon="6.7833">
        <ele>2038</ele>
        <time>2022-03-27T13:40:58Z</time>
      </trkpt>
      <trkpt lat="46.12916" lon="6.78347">
        <ele>2038</ele>
        <time>2022-03-27T13:41:19Z</time>
      </trkpt>
      <trkpt lat="46.12914" lon="6.78367">
        <ele>2038</ele>
        <time>2022-03-27T13:41:24Z</time>
      </trkpt>
      <trkpt lat="46.12908" lon="6.78395">
        <ele>2036</ele>
        <time>2022-03-27T13:41:44Z</time>
      </trkpt>
      <trkpt lat="46.12909" lon="6.78408">
        <ele>2035</ele>
        <time>2022-03-27T13:41:50Z</time>
      </trkpt>
      <trkpt lat="46.12899" lon="6.78399">
        <ele>2035</ele>
        <time>2022-03-27T13:42:29Z</time>
      </trkpt>
      <trkpt lat="46.12893" lon="6.78393">
        <ele>2029</ele>
        <time>2022-03-27T13:43:30Z</time>
      </trkpt>
      <trkpt lat="46.12877" lon="6.78395">
        <ele>2028</ele>
        <time>2022-03-27T13:43:35Z</time>
      </trkpt>
      <trkpt lat="46.1285" lon="6.78389">
        <ele>2006</ele>
        <time>2022-03-27T13:43:42Z</time>
      </trkpt>
      <trkpt lat="46.1284" lon="6.78382">
        <ele>1998</ele>
        <time>2022-03-27T13:43:44Z</time>
      </trkpt>
      <trkpt lat="46.12829" lon="6.7838">
        <ele>1993</ele>
        <time>2022-03-27T13:43:46Z</time>
      </trkpt>
      <trkpt lat="46.1282" lon="6.78376">
        <ele>1989</ele>
        <time>2022-03-27T13:43:48Z</time>
      </trkpt>
      <trkpt lat="46.12811" lon="6.78363">
        <ele>1986</ele>
        <time>2022-03-27T13:43:51Z</time>
      </trkpt>
      <trkpt lat="46.12805" lon="6.78351">
        <ele>1983</ele>
        <time>2022-03-27T13:43:53Z</time>
      </trkpt>
      <trkpt lat="46.12798" lon="6.78334">
        <ele>1979</ele>
        <time>2022-03-27T13:43:56Z</time>
      </trkpt>
      <trkpt lat="46.12795" lon="6.78323">
        <ele>1975</ele>
        <time>2022-03-27T13:44:36Z</time>
      </trkpt>
      <trkpt lat="46.12788" lon="6.78306">
        <ele>1965</ele>
        <time>2022-03-27T13:44:39Z</time>
      </trkpt>
      <trkpt lat="46.12776" lon="6.78293">
        <ele>1957</ele>
        <time>2022-03-27T13:44:42Z</time>
      </trkpt>
      <trkpt lat="46.12769" lon="6.7828">
        <ele>1949</ele>
        <time>2022-03-27T13:44:44Z</time>
      </trkpt>
      <trkpt lat="46.12766" lon="6.78266">
        <ele>1946</ele>
        <time>2022-03-27T13:44:46Z</time>
      </trkpt>
      <trkpt lat="46.12758" lon="6.78251">
        <ele>1943</ele>
        <time>2022-03-27T13:44:48Z</time>
      </trkpt>
      <trkpt lat="46.12757" lon="6.7824">
        <ele>1943</ele>
        <time>2022-03-27T13:44:50Z</time>
      </trkpt>
      <trkpt lat="46.12749" lon="6.78244">
        <ele>1942</ele>
        <time>2022-03-27T13:45:12Z</time>
      </trkpt>
      <trkpt lat="46.1274" lon="6.78253">
        <ele>1943</ele>
        <time>2022-03-27T13:45:15Z</time>
      </trkpt>
      <trkpt lat="46.12733" lon="6.78266">
        <ele>1945</ele>
        <time>2022-03-27T13:45:18Z</time>
      </trkpt>
      <trkpt lat="46.12728" lon="6.78288">
        <ele>1944</ele>
        <time>2022-03-27T13:45:22Z</time>
      </trkpt>
      <trkpt lat="46.12725" lon="6.78302">
        <ele>1943</ele>
        <time>2022-03-27T13:45:25Z</time>
      </trkpt>
      <trkpt lat="46.12714" lon="6.78308">
        <ele>1942</ele>
        <time>2022-03-27T13:45:28Z</time>
      </trkpt>
      <trkpt lat="46.12702" lon="6.7832">
        <ele>1940</ele>
        <time>2022-03-27T13:45:31Z</time>
      </trkpt>
      <trkpt lat="46.12694" lon="6.78327">
        <ele>1939</ele>
        <time>2022-03-27T13:45:33Z</time>
      </trkpt>
      <trkpt lat="46.12681" lon="6.78317">
        <ele>1936</ele>
        <time>2022-03-27T13:45:50Z</time>
      </trkpt>
      <trkpt lat="46.12674" lon="6.78297">
        <ele>1929</ele>
        <time>2022-03-27T13:45:53Z</time>
      </trkpt>
      <trkpt lat="46.12669" lon="6.78286">
        <ele>1925</ele>
        <time>2022-03-27T13:45:56Z</time>
      </trkpt>
      <trkpt lat="46.12659" lon="6.78281">
        <ele>1924</ele>
        <time>2022-03-27T13:46:00Z</time>
      </trkpt>
      <trkpt lat="46.12637" lon="6.78298">
        <ele>1908</ele>
        <time>2022-03-27T13:46:08Z</time>
      </trkpt>
      <trkpt lat="46.12628" lon="6.7831">
        <ele>1904</ele>
        <time>2022-03-27T13:46:12Z</time>
      </trkpt>
      <trkpt lat="46.12622" lon="6.78325">
        <ele>1898</ele>
        <time>2022-03-27T13:46:15Z</time>
      </trkpt>
      <trkpt lat="46.12612" lon="6.78332">
        <ele>1895</ele>
        <time>2022-03-27T13:46:18Z</time>
      </trkpt>
      <trkpt lat="46.12602" lon="6.78344">
        <ele>1889</ele>
        <time>2022-03-27T13:46:22Z</time>
      </trkpt>
      <trkpt lat="46.1259" lon="6.78345">
        <ele>1884</ele>
        <time>2022-03-27T13:46:51Z</time>
      </trkpt>
      <trkpt lat="46.12577" lon="6.78348">
        <ele>1876</ele>
        <time>2022-03-27T13:46:54Z</time>
      </trkpt>
      <trkpt lat="46.12562" lon="6.78337">
        <ele>1863</ele>
        <time>2022-03-27T13:46:58Z</time>
      </trkpt>
      <trkpt lat="46.12553" lon="6.78324">
        <ele>1860</ele>
        <time>2022-03-27T13:47:01Z</time>
      </trkpt>
      <trkpt lat="46.12548" lon="6.78315">
        <ele>1855</ele>
        <time>2022-03-27T13:47:14Z</time>
      </trkpt>
      <trkpt lat="46.12541" lon="6.78304">
        <ele>1855</ele>
        <time>2022-03-27T13:47:29Z</time>
      </trkpt>
      <trkpt lat="46.12531" lon="6.78313">
        <ele>1854</ele>
        <time>2022-03-27T13:47:33Z</time>
      </trkpt>
      <trkpt lat="46.12517" lon="6.78304">
        <ele>1848</ele>
        <time>2022-03-27T13:47:38Z</time>
      </trkpt>
      <trkpt lat="46.12514" lon="6.78285">
        <ele>1844</ele>
        <time>2022-03-27T13:47:42Z</time>
      </trkpt>
      <trkpt lat="46.12504" lon="6.78274">
        <ele>1841</ele>
        <time>2022-03-27T13:47:46Z</time>
      </trkpt>
      <trkpt lat="46.12488" lon="6.78248">
        <ele>1828</ele>
        <time>2022-03-27T13:48:46Z</time>
      </trkpt>
      <trkpt lat="46.12477" lon="6.78237">
        <ele>1827</ele>
        <time>2022-03-27T13:48:50Z</time>
      </trkpt>
      <trkpt lat="46.12465" lon="6.7823">
        <ele>1807</ele>
        <time>2022-03-27T13:48:54Z</time>
      </trkpt>
      <trkpt lat="46.12453" lon="6.78232">
        <ele>1801</ele>
        <time>2022-03-27T13:48:57Z</time>
      </trkpt>
      <trkpt lat="46.12444" lon="6.78228">
        <ele>1800</ele>
        <time>2022-03-27T13:48:59Z</time>
      </trkpt>
      <trkpt lat="46.12435" lon="6.78228">
        <ele>1800</ele>
        <time>2022-03-27T13:49:01Z</time>
      </trkpt>
      <trkpt lat="46.1242" lon="6.78182">
        <ele>1797</ele>
        <time>2022-03-27T13:49:07Z</time>
      </trkpt>
      <trkpt lat="46.12418" lon="6.78166">
        <ele>1796</ele>
        <time>2022-03-27T13:49:10Z</time>
      </trkpt>
      <trkpt lat="46.12421" lon="6.78124">
        <ele>1794</ele>
        <time>2022-03-27T13:49:24Z</time>
      </trkpt>
      <trkpt lat="46.12406" lon="6.78094">
        <ele>1793</ele>
        <time>2022-03-27T13:50:45Z</time>
      </trkpt>
      <trkpt lat="46.12397" lon="6.78086">
        <ele>1793</ele>
        <time>2022-03-27T13:50:49Z</time>
      </trkpt>
      <trkpt lat="46.12387" lon="6.78065">
        <ele>1791</ele>
        <time>2022-03-27T13:50:53Z</time>
      </trkpt>
      <trkpt lat="46.12374" lon="6.78054">
        <ele>1787</ele>
        <time>2022-03-27T13:50:56Z</time>
      </trkpt>
      <trkpt lat="46.1237" lon="6.78034">
        <ele>1785</ele>
        <time>2022-03-27T13:50:58Z</time>
      </trkpt>
      <trkpt lat="46.12367" lon="6.7801">
        <ele>1782</ele>
        <time>2022-03-27T13:51:00Z</time>
      </trkpt>
      <trkpt lat="46.12365" lon="6.77991">
        <ele>1778</ele>
        <time>2022-03-27T13:51:02Z</time>
      </trkpt>
      <trkpt lat="46.1236" lon="6.77959">
        <ele>1774</ele>
        <time>2022-03-27T13:51:05Z</time>
      </trkpt>
      <trkpt lat="46.12355" lon="6.77925">
        <ele>1769</ele>
        <time>2022-03-27T13:51:10Z</time>
      </trkpt>
      <trkpt lat="46.12353" lon="6.77891">
        <ele>1766</ele>
        <time>2022-03-27T13:51:16Z</time>
      </trkpt>
      <trkpt lat="46.12342" lon="6.7786">
        <ele>1765</ele>
        <time>2022-03-27T13:51:24Z</time>
      </trkpt>
      <trkpt lat="46.1234" lon="6.77832">
        <ele>1762</ele>
        <time>2022-03-27T13:51:29Z</time>
      </trkpt>
      <trkpt lat="46.12333" lon="6.77818">
        <ele>1761</ele>
        <time>2022-03-27T13:51:32Z</time>
      </trkpt>
      <trkpt lat="46.12324" lon="6.77809">
        <ele>1758</ele>
        <time>2022-03-27T13:51:34Z</time>
      </trkpt>
      <trkpt lat="46.12306" lon="6.77784">
        <ele>1753</ele>
        <time>2022-03-27T13:51:38Z</time>
      </trkpt>
      <trkpt lat="46.12301" lon="6.77774">
        <ele>1750</ele>
        <time>2022-03-27T13:51:39Z</time>
      </trkpt>
      <trkpt lat="46.12297" lon="6.77757">
        <ele>1748</ele>
        <time>2022-03-27T13:51:41Z</time>
      </trkpt>
      <trkpt lat="46.12294" lon="6.77743">
        <ele>1745</ele>
        <time>2022-03-27T13:51:43Z</time>
      </trkpt>
      <trkpt lat="46.12292" lon="6.77731">
        <ele>1744</ele>
        <time>2022-03-27T13:51:48Z</time>
      </trkpt>
      <trkpt lat="46.1229" lon="6.77712">
        <ele>1743</ele>
        <time>2022-03-27T13:51:53Z</time>
      </trkpt>
      <trkpt lat="46.12285" lon="6.777">
        <ele>1743</ele>
        <time>2022-03-27T13:51:56Z</time>
      </trkpt>
      <trkpt lat="46.12288" lon="6.77684">
        <ele>1742</ele>
        <time>2022-03-27T13:53:04Z</time>
      </trkpt>
      <trkpt lat="46.12274" lon="6.77674">
        <ele>1749</ele>
        <time>2022-03-27T13:53:24Z</time>
      </trkpt>
      <trkpt lat="46.12265" lon="6.77648">
        <ele>1748</ele>
        <time>2022-03-27T13:53:38Z</time>
      </trkpt>
      <trkpt lat="46.12262" lon="6.77631">
        <ele>1743</ele>
        <time>2022-03-27T13:53:40Z</time>
      </trkpt>
      <trkpt lat="46.12256" lon="6.77616">
        <ele>1740</ele>
        <time>2022-03-27T13:53:43Z</time>
      </trkpt>
      <trkpt lat="46.12253" lon="6.77604">
        <ele>1736</ele>
        <time>2022-03-27T13:53:45Z</time>
      </trkpt>
      <trkpt lat="46.12249" lon="6.77592">
        <ele>1734</ele>
        <time>2022-03-27T13:53:47Z</time>
      </trkpt>
      <trkpt lat="46.12247" lon="6.77569">
        <ele>1731</ele>
        <time>2022-03-27T13:53:50Z</time>
      </trkpt>
      <trkpt lat="46.12244" lon="6.77554">
        <ele>1730</ele>
        <time>2022-03-27T13:53:52Z</time>
      </trkpt>
      <trkpt lat="46.12247" lon="6.7754">
        <ele>1727</ele>
        <time>2022-03-27T13:53:54Z</time>
      </trkpt>
      <trkpt lat="46.12239" lon="6.77525">
        <ele>1724</ele>
        <time>2022-03-27T13:53:56Z</time>
      </trkpt>
      <trkpt lat="46.12233" lon="6.77511">
        <ele>1722</ele>
        <time>2022-03-27T13:53:58Z</time>
      </trkpt>
      <trkpt lat="46.12237" lon="6.77501">
        <ele>1719</ele>
        <time>2022-03-27T13:54:00Z</time>
      </trkpt>
      <trkpt lat="46.12232" lon="6.77489">
        <ele>1717</ele>
        <time>2022-03-27T13:54:03Z</time>
      </trkpt>
      <trkpt lat="46.12227" lon="6.77468">
        <ele>1712</ele>
        <time>2022-03-27T13:54:06Z</time>
      </trkpt>
      <trkpt lat="46.12223" lon="6.77447">
        <ele>1708</ele>
        <time>2022-03-27T13:54:09Z</time>
      </trkpt>
      <trkpt lat="46.12217" lon="6.77431">
        <ele>1704</ele>
        <time>2022-03-27T13:54:11Z</time>
      </trkpt>
      <trkpt lat="46.12197" lon="6.77396">
        <ele>1700</ele>
        <time>2022-03-27T13:54:15Z</time>
      </trkpt>
      <trkpt lat="46.12158" lon="6.77346">
        <ele>1695</ele>
        <time>2022-03-27T13:54:24Z</time>
      </trkpt>
      <trkpt lat="46.12152" lon="6.7733">
        <ele>1694</ele>
        <time>2022-03-27T13:54:33Z</time>
      </trkpt>
      <trkpt lat="46.12147" lon="6.77315">
        <ele>1694</ele>
        <time>2022-03-27T13:54:36Z</time>
      </trkpt>
      <trkpt lat="46.12139" lon="6.77295">
        <ele>1692</ele>
        <time>2022-03-27T13:54:39Z</time>
      </trkpt>
      <trkpt lat="46.12135" lon="6.77277">
        <ele>1690</ele>
        <time>2022-03-27T13:54:41Z</time>
      </trkpt>
      <trkpt lat="46.1213" lon="6.77261">
        <ele>1688</ele>
        <time>2022-03-27T13:54:43Z</time>
      </trkpt>
      <trkpt lat="46.12137" lon="6.7724">
        <ele>1677</ele>
        <time>2022-03-27T13:54:55Z</time>
      </trkpt>
      <trkpt lat="46.12145" lon="6.77241">
        <ele>1672</ele>
        <time>2022-03-27T13:54:57Z</time>
      </trkpt>
      <trkpt lat="46.12141" lon="6.77231">
        <ele>1668</ele>
        <time>2022-03-27T13:55:00Z</time>
      </trkpt>
      <trkpt lat="46.1213" lon="6.77222">
        <ele>1664</ele>
        <time>2022-03-27T13:55:03Z</time>
      </trkpt>
      <trkpt lat="46.12119" lon="6.77215">
        <ele>1656</ele>
        <time>2022-03-27T13:55:05Z</time>
      </trkpt>
      <trkpt lat="46.12113" lon="6.77242">
        <ele>1650</ele>
        <time>2022-03-27T13:55:12Z</time>
      </trkpt>
      <trkpt lat="46.12106" lon="6.77249">
        <ele>1650</ele>
        <time>2022-03-27T13:55:15Z</time>
      </trkpt>
      <trkpt lat="46.12098" lon="6.7724">
        <ele>1650</ele>
        <time>2022-03-27T13:55:17Z</time>
      </trkpt>
      <trkpt lat="46.12089" lon="6.77229">
        <ele>1650</ele>
        <time>2022-03-27T13:55:19Z</time>
      </trkpt>
      <trkpt lat="46.12087" lon="6.77212">
        <ele>1650</ele>
        <time>2022-03-27T13:55:21Z</time>
      </trkpt>
      <trkpt lat="46.12074" lon="6.77204">
        <ele>1648</ele>
        <time>2022-03-27T13:55:24Z</time>
      </trkpt>
      <trkpt lat="46.12064" lon="6.77199">
        <ele>1643</ele>
        <time>2022-03-27T13:55:26Z</time>
      </trkpt>
      <trkpt lat="46.12048" lon="6.77183">
        <ele>1640</ele>
        <time>2022-03-27T13:55:34Z</time>
      </trkpt>
      <trkpt lat="46.12012" lon="6.77165">
        <ele>1637</ele>
        <time>2022-03-27T13:55:41Z</time>
      </trkpt>
      <trkpt lat="46.11995" lon="6.77191">
        <ele>1623</ele>
        <time>2022-03-27T13:55:59Z</time>
      </trkpt>
      <trkpt lat="46.11986" lon="6.77193">
        <ele>1616</ele>
        <time>2022-03-27T13:56:02Z</time>
      </trkpt>
      <trkpt lat="46.11978" lon="6.77182">
        <ele>1615</ele>
        <time>2022-03-27T13:56:04Z</time>
      </trkpt>
      <trkpt lat="46.11968" lon="6.77172">
        <ele>1611</ele>
        <time>2022-03-27T13:56:06Z</time>
      </trkpt>
      <trkpt lat="46.11959" lon="6.77163">
        <ele>1609</ele>
        <time>2022-03-27T13:56:09Z</time>
      </trkpt>
      <trkpt lat="46.11948" lon="6.77163">
        <ele>1607</ele>
        <time>2022-03-27T13:56:13Z</time>
      </trkpt>
      <trkpt lat="46.1194" lon="6.77146">
        <ele>1605</ele>
        <time>2022-03-27T13:56:17Z</time>
      </trkpt>
      <trkpt lat="46.11933" lon="6.7713">
        <ele>1603</ele>
        <time>2022-03-27T13:56:19Z</time>
      </trkpt>
      <trkpt lat="46.11926" lon="6.77116">
        <ele>1602</ele>
        <time>2022-03-27T13:56:21Z</time>
      </trkpt>
      <trkpt lat="46.11919" lon="6.77081">
        <ele>1598</ele>
        <time>2022-03-27T13:56:25Z</time>
      </trkpt>
      <trkpt lat="46.1193" lon="6.77079">
        <ele>1595</ele>
        <time>2022-03-27T13:56:32Z</time>
      </trkpt>
      <trkpt lat="46.11921" lon="6.77056">
        <ele>1590</ele>
        <time>2022-03-27T13:58:50Z</time>
      </trkpt>
      <trkpt lat="46.11913" lon="6.77045">
        <ele>1584</ele>
        <time>2022-03-27T13:58:52Z</time>
      </trkpt>
      <trkpt lat="46.11909" lon="6.77027">
        <ele>1581</ele>
        <time>2022-03-27T13:58:55Z</time>
      </trkpt>
      <trkpt lat="46.11903" lon="6.77014">
        <ele>1578</ele>
        <time>2022-03-27T13:58:57Z</time>
      </trkpt>
      <trkpt lat="46.11902" lon="6.77003">
        <ele>1577</ele>
        <time>2022-03-27T13:58:59Z</time>
      </trkpt>
      <trkpt lat="46.11897" lon="6.76986">
        <ele>1574</ele>
        <time>2022-03-27T13:59:01Z</time>
      </trkpt>
      <trkpt lat="46.11887" lon="6.76977">
        <ele>1570</ele>
        <time>2022-03-27T13:59:03Z</time>
      </trkpt>
      <trkpt lat="46.11872" lon="6.76966">
        <ele>1568</ele>
        <time>2022-03-27T13:59:07Z</time>
      </trkpt>
      <trkpt lat="46.11865" lon="6.76953">
        <ele>1565</ele>
        <time>2022-03-27T13:59:09Z</time>
      </trkpt>
      <trkpt lat="46.11852" lon="6.76944">
        <ele>1563</ele>
        <time>2022-03-27T13:59:12Z</time>
      </trkpt>
      <trkpt lat="46.11843" lon="6.76938">
        <ele>1562</ele>
        <time>2022-03-27T13:59:14Z</time>
      </trkpt>
      <trkpt lat="46.11837" lon="6.76926">
        <ele>1560</ele>
        <time>2022-03-27T13:59:16Z</time>
      </trkpt>
      <trkpt lat="46.11829" lon="6.76922">
        <ele>1558</ele>
        <time>2022-03-27T13:59:18Z</time>
      </trkpt>
      <trkpt lat="46.11817" lon="6.76895">
        <ele>1553</ele>
        <time>2022-03-27T13:59:22Z</time>
      </trkpt>
      <trkpt lat="46.11807" lon="6.76877">
        <ele>1548</ele>
        <time>2022-03-27T13:59:25Z</time>
      </trkpt>
      <trkpt lat="46.118" lon="6.76866">
        <ele>1544</ele>
        <time>2022-03-27T13:59:27Z</time>
      </trkpt>
      <trkpt lat="46.11797" lon="6.76849">
        <ele>1541</ele>
        <time>2022-03-27T13:59:30Z</time>
      </trkpt>
      <trkpt lat="46.1179" lon="6.76831">
        <ele>1537</ele>
        <time>2022-03-27T13:59:33Z</time>
      </trkpt>
      <trkpt lat="46.11786" lon="6.7681">
        <ele>1531</ele>
        <time>2022-03-27T13:59:36Z</time>
      </trkpt>
      <trkpt lat="46.11783" lon="6.76785">
        <ele>1528</ele>
        <time>2022-03-27T13:59:39Z</time>
      </trkpt>
      <trkpt lat="46.11773" lon="6.76765">
        <ele>1524</ele>
        <time>2022-03-27T13:59:41Z</time>
      </trkpt>
      <trkpt lat="46.11764" lon="6.76747">
        <ele>1520</ele>
        <time>2022-03-27T13:59:43Z</time>
      </trkpt>
      <trkpt lat="46.11759" lon="6.76738">
        <ele>1518</ele>
        <time>2022-03-27T13:59:44Z</time>
      </trkpt>
      <trkpt lat="46.11749" lon="6.76725">
        <ele>1515</ele>
        <time>2022-03-27T13:59:46Z</time>
      </trkpt>
      <trkpt lat="46.11733" lon="6.76706">
        <ele>1508</ele>
        <time>2022-03-27T13:59:50Z</time>
      </trkpt>
      <trkpt lat="46.11727" lon="6.76699">
        <ele>1506</ele>
        <time>2022-03-27T13:59:53Z</time>
      </trkpt>
      <trkpt lat="46.11727" lon="6.76692">
        <ele>1505</ele>
        <time>2022-03-27T14:00:22Z</time>
      </trkpt>
      <trkpt lat="46.11742" lon="6.76694">
        <ele>1502</ele>
        <time>2022-03-27T14:00:26Z</time>
      </trkpt>
      <trkpt lat="46.11755" lon="6.76684">
        <ele>1497</ele>
        <time>2022-03-27T14:00:29Z</time>
      </trkpt>
      <trkpt lat="46.11746" lon="6.7666">
        <ele>1492</ele>
        <time>2022-03-27T14:00:37Z</time>
      </trkpt>
      <trkpt lat="46.11742" lon="6.76638">
        <ele>1490</ele>
        <time>2022-03-27T14:00:44Z</time>
      </trkpt>
      <trkpt lat="46.11743" lon="6.76626">
        <ele>1488</ele>
        <time>2022-03-27T14:00:47Z</time>
      </trkpt>
      <trkpt lat="46.11741" lon="6.76615">
        <ele>1487</ele>
        <time>2022-03-27T14:01:02Z</time>
      </trkpt>
      <trkpt lat="46.11747" lon="6.76603">
        <ele>1487</ele>
        <time>2022-03-27T14:01:21Z</time>
      </trkpt>
      <trkpt lat="46.11755" lon="6.76597">
        <ele>1486</ele>
        <time>2022-03-27T14:01:38Z</time>
      </trkpt>
      <trkpt lat="46.11762" lon="6.76577">
        <ele>1485</ele>
        <time>2022-03-27T14:01:48Z</time>
      </trkpt>
      <trkpt lat="46.11757" lon="6.76546">
        <ele>1484</ele>
        <time>2022-03-27T14:01:53Z</time>
      </trkpt>
      <trkpt lat="46.11755" lon="6.76527">
        <ele>1485</ele>
        <time>2022-03-27T14:01:56Z</time>
      </trkpt>
      <trkpt lat="46.11751" lon="6.76507">
        <ele>1484</ele>
        <time>2022-03-27T14:02:00Z</time>
      </trkpt>
      <trkpt lat="46.11752" lon="6.76489">
        <ele>1482</ele>
        <time>2022-03-27T14:02:03Z</time>
      </trkpt>
      <trkpt lat="46.11741" lon="6.7645">
        <ele>1479</ele>
        <time>2022-03-27T14:02:09Z</time>
      </trkpt>
      <trkpt lat="46.11727" lon="6.76414">
        <ele>1476</ele>
        <time>2022-03-27T14:02:28Z</time>
      </trkpt>
      <trkpt lat="46.1172" lon="6.76399">
        <ele>1473</ele>
        <time>2022-03-27T14:02:35Z</time>
      </trkpt>
      <trkpt lat="46.11709" lon="6.76382">
        <ele>1471</ele>
        <time>2022-03-27T14:02:42Z</time>
      </trkpt>
      <trkpt lat="46.11711" lon="6.76352">
        <ele>1468</ele>
        <time>2022-03-27T14:02:51Z</time>
      </trkpt>
      <trkpt lat="46.11721" lon="6.76347">
        <ele>1462</ele>
        <time>2022-03-27T14:02:58Z</time>
      </trkpt>
      <trkpt lat="46.11747" lon="6.7636">
        <ele>1455</ele>
        <time>2022-03-27T14:03:02Z</time>
      </trkpt>
      <trkpt lat="46.11764" lon="6.76369">
        <ele>1452</ele>
        <time>2022-03-27T14:03:04Z</time>
      </trkpt>
      <trkpt lat="46.11782" lon="6.76377">
        <ele>1449</ele>
        <time>2022-03-27T14:03:06Z</time>
      </trkpt>
      <trkpt lat="46.11796" lon="6.76377">
        <ele>1446</ele>
        <time>2022-03-27T14:03:09Z</time>
      </trkpt>
      <trkpt lat="46.11814" lon="6.76355">
        <ele>1444</ele>
        <time>2022-03-27T14:03:23Z</time>
      </trkpt>
      <trkpt lat="46.11821" lon="6.76331">
        <ele>1441</ele>
        <time>2022-03-27T14:04:06Z</time>
      </trkpt>
      <trkpt lat="46.1183" lon="6.76311">
        <ele>1438</ele>
        <time>2022-03-27T14:04:09Z</time>
      </trkpt>
      <trkpt lat="46.11837" lon="6.76289">
        <ele>1430</ele>
        <time>2022-03-27T14:04:12Z</time>
      </trkpt>
      <trkpt lat="46.11862" lon="6.76239">
        <ele>1424</ele>
        <time>2022-03-27T14:04:21Z</time>
      </trkpt>
      <trkpt lat="46.11863" lon="6.76222">
        <ele>1424</ele>
        <time>2022-03-27T14:04:24Z</time>
      </trkpt>
      <trkpt lat="46.1187" lon="6.76163">
        <ele>1421</ele>
        <time>2022-03-27T14:04:32Z</time>
      </trkpt>
      <trkpt lat="46.11874" lon="6.76138">
        <ele>1416</ele>
        <time>2022-03-27T14:04:35Z</time>
      </trkpt>
      <trkpt lat="46.11877" lon="6.76124">
        <ele>1413</ele>
        <time>2022-03-27T14:04:37Z</time>
      </trkpt>
      <trkpt lat="46.11882" lon="6.76109">
        <ele>1411</ele>
        <time>2022-03-27T14:04:40Z</time>
      </trkpt>
      <trkpt lat="46.11885" lon="6.76089">
        <ele>1407</ele>
        <time>2022-03-27T14:04:44Z</time>
      </trkpt>
      <trkpt lat="46.11886" lon="6.76076">
        <ele>1404</ele>
        <time>2022-03-27T14:04:46Z</time>
      </trkpt>
      <trkpt lat="46.11887" lon="6.7606">
        <ele>1402</ele>
        <time>2022-03-27T14:04:49Z</time>
      </trkpt>
      <trkpt lat="46.11888" lon="6.76042">
        <ele>1398</ele>
        <time>2022-03-27T14:04:52Z</time>
      </trkpt>
      <trkpt lat="46.11891" lon="6.76027">
        <ele>1396</ele>
        <time>2022-03-27T14:04:55Z</time>
      </trkpt>
      <trkpt lat="46.11898" lon="6.76011">
        <ele>1393</ele>
        <time>2022-03-27T14:05:17Z</time>
      </trkpt>
      <trkpt lat="46.11902" lon="6.75995">
        <ele>1391</ele>
        <time>2022-03-27T14:05:22Z</time>
      </trkpt>
      <trkpt lat="46.11909" lon="6.7598">
        <ele>1389</ele>
        <time>2022-03-27T14:05:50Z</time>
      </trkpt>
      <trkpt lat="46.11915" lon="6.75962">
        <ele>1387</ele>
        <time>2022-03-27T14:05:54Z</time>
      </trkpt>
      <trkpt lat="46.11915" lon="6.75938">
        <ele>1386</ele>
        <time>2022-03-27T14:05:59Z</time>
      </trkpt>
      <trkpt lat="46.1192" lon="6.75908">
        <ele>1384</ele>
        <time>2022-03-27T14:06:09Z</time>
      </trkpt>
      <trkpt lat="46.11924" lon="6.75898">
        <ele>1373</ele>
        <time>2022-03-27T14:08:24Z</time>
      </trkpt>
      <trkpt lat="46.11919" lon="6.75889">
        <ele>1371</ele>
        <time>2022-03-27T14:09:39Z</time>
      </trkpt>
      <trkpt lat="46.11915" lon="6.75873">
        <ele>1370</ele>
        <time>2022-03-27T14:09:53Z</time>
      </trkpt>
      <trkpt lat="46.11919" lon="6.75862">
        <ele>1365</ele>
        <time>2022-03-27T14:09:58Z</time>
      </trkpt>
      <trkpt lat="46.11917" lon="6.7585">
        <ele>1360</ele>
        <time>2022-03-27T14:10:09Z</time>
      </trkpt>
      <trkpt lat="46.11913" lon="6.75834">
        <ele>1359</ele>
        <time>2022-03-27T14:10:15Z</time>
      </trkpt>
      <trkpt lat="46.11912" lon="6.75821">
        <ele>1358</ele>
        <time>2022-03-27T14:10:21Z</time>
      </trkpt>
      <trkpt lat="46.11906" lon="6.75806">
        <ele>1357</ele>
        <time>2022-03-27T14:10:30Z</time>
      </trkpt>
      <trkpt lat="46.11902" lon="6.75797">
        <ele>1357</ele>
        <time>2022-03-27T14:10:40Z</time>
      </trkpt>
      <trkpt lat="46.11897" lon="6.75777">
        <ele>1356</ele>
        <time>2022-03-27T14:10:52Z</time>
      </trkpt>
      <trkpt lat="46.11896" lon="6.75766">
        <ele>1351</ele>
        <time>2022-03-27T14:11:04Z</time>
      </trkpt>
      <trkpt lat="46.11891" lon="6.75755">
        <ele>1348</ele>
        <time>2022-03-27T14:11:11Z</time>
      </trkpt>
      <trkpt lat="46.11889" lon="6.75743">
        <ele>1347</ele>
        <time>2022-03-27T14:11:19Z</time>
      </trkpt>
      <trkpt lat="46.11887" lon="6.75726">
        <ele>1345</ele>
        <time>2022-03-27T14:11:28Z</time>
      </trkpt>
      <trkpt lat="46.11886" lon="6.75713">
        <ele>1342</ele>
        <time>2022-03-27T14:11:47Z</time>
      </trkpt>
      <trkpt lat="46.11888" lon="6.75698">
        <ele>1336</ele>
        <time>2022-03-27T14:12:16Z</time>
      </trkpt>
      <trkpt lat="46.11888" lon="6.75687">
        <ele>1326</ele>
        <time>2022-03-27T14:12:23Z</time>
      </trkpt>
      <trkpt lat="46.11886" lon="6.75672">
        <ele>1322</ele>
        <time>2022-03-27T14:12:32Z</time>
      </trkpt>
      <trkpt lat="46.11882" lon="6.75661">
        <ele>1320</ele>
        <time>2022-03-27T14:12:36Z</time>
      </trkpt>
      <trkpt lat="46.11881" lon="6.7564">
        <ele>1317</ele>
        <time>2022-03-27T14:12:48Z</time>
      </trkpt>
      <trkpt lat="46.11876" lon="6.7563">
        <ele>1317</ele>
        <time>2022-03-27T14:12:55Z</time>
      </trkpt>
      <trkpt lat="46.11872" lon="6.75648">
        <ele>1317</ele>
        <time>2022-03-27T14:13:06Z</time>
      </trkpt>
      <trkpt lat="46.11873" lon="6.7566">
        <ele>1316</ele>
        <time>2022-03-27T14:13:10Z</time>
      </trkpt>
      <trkpt lat="46.11873" lon="6.75671">
        <ele>1316</ele>
        <time>2022-03-27T14:13:15Z</time>
      </trkpt>
      <trkpt lat="46.11873" lon="6.75682">
        <ele>1313</ele>
        <time>2022-03-27T14:13:25Z</time>
      </trkpt>
      <trkpt lat="46.1187" lon="6.75698">
        <ele>1311</ele>
        <time>2022-03-27T14:13:38Z</time>
      </trkpt>
      <trkpt lat="46.11872" lon="6.75712">
        <ele>1308</ele>
        <time>2022-03-27T14:13:57Z</time>
      </trkpt>
      <trkpt lat="46.11869" lon="6.75723">
        <ele>1306</ele>
        <time>2022-03-27T14:14:09Z</time>
      </trkpt>
      <trkpt lat="46.1186" lon="6.75735">
        <ele>1304</ele>
        <time>2022-03-27T14:14:24Z</time>
      </trkpt>
      <trkpt lat="46.11852" lon="6.7575">
        <ele>1303</ele>
        <time>2022-03-27T14:14:32Z</time>
      </trkpt>
      <trkpt lat="46.11846" lon="6.75757">
        <ele>1302</ele>
        <time>2022-03-27T14:14:34Z</time>
      </trkpt>
      <trkpt lat="46.1184" lon="6.7577">
        <ele>1300</ele>
        <time>2022-03-27T14:14:46Z</time>
      </trkpt>
      <trkpt lat="46.11837" lon="6.75783">
        <ele>1298</ele>
        <time>2022-03-27T14:15:03Z</time>
      </trkpt>
      <trkpt lat="46.11834" lon="6.75795">
        <ele>1295</ele>
        <time>2022-03-27T14:15:13Z</time>
      </trkpt>
      <trkpt lat="46.11825" lon="6.75804">
        <ele>1294</ele>
        <time>2022-03-27T14:15:23Z</time>
      </trkpt>
      <trkpt lat="46.11818" lon="6.75805">
        <ele>1294</ele>
        <time>2022-03-27T14:15:30Z</time>
      </trkpt>
      <trkpt lat="46.11811" lon="6.75789">
        <ele>1295</ele>
        <time>2022-03-27T14:15:51Z</time>
      </trkpt>
      <trkpt lat="46.11813" lon="6.75778">
        <ele>1295</ele>
        <time>2022-03-27T14:16:00Z</time>
      </trkpt>
      <trkpt lat="46.11817" lon="6.75741">
        <ele>1292</ele>
        <time>2022-03-27T14:16:21Z</time>
      </trkpt>
      <trkpt lat="46.1182" lon="6.75715">
        <ele>1292</ele>
        <time>2022-03-27T14:16:43Z</time>
      </trkpt>
      <trkpt lat="46.11821" lon="6.75698">
        <ele>1292</ele>
        <time>2022-03-27T14:16:55Z</time>
      </trkpt>
      <trkpt lat="46.11816" lon="6.75673">
        <ele>1291</ele>
        <time>2022-03-27T14:17:08Z</time>
      </trkpt>
      <trkpt lat="46.11809" lon="6.7565">
        <ele>1289</ele>
        <time>2022-03-27T14:17:29Z</time>
      </trkpt>
      <trkpt lat="46.11812" lon="6.75639">
        <ele>1288</ele>
        <time>2022-03-27T14:17:35Z</time>
      </trkpt>
      <trkpt lat="46.11809" lon="6.75628">
        <ele>1289</ele>
        <time>2022-03-27T14:17:42Z</time>
      </trkpt>
      <trkpt lat="46.11807" lon="6.75614">
        <ele>1289</ele>
        <time>2022-03-27T14:17:47Z</time>
      </trkpt>
      <trkpt lat="46.11807" lon="6.75601">
        <ele>1290</ele>
        <time>2022-03-27T14:17:57Z</time>
      </trkpt>
      <trkpt lat="46.11807" lon="6.75591">
        <ele>1290</ele>
        <time>2022-03-27T14:18:05Z</time>
      </trkpt>
      <trkpt lat="46.11807" lon="6.7558">
        <ele>1289</ele>
        <time>2022-03-27T14:18:16Z</time>
      </trkpt>
      <trkpt lat="46.11807" lon="6.75566">
        <ele>1288</ele>
        <time>2022-03-27T14:18:27Z</time>
      </trkpt>
      <trkpt lat="46.11802" lon="6.75552">
        <ele>1288</ele>
        <time>2022-03-27T14:18:39Z</time>
      </trkpt>
      <trkpt lat="46.11798" lon="6.75537">
        <ele>1287</ele>
        <time>2022-03-27T14:18:50Z</time>
      </trkpt>
      <trkpt lat="46.11794" lon="6.75523">
        <ele>1285</ele>
        <time>2022-03-27T14:19:00Z</time>
      </trkpt>
      <trkpt lat="46.11793" lon="6.75509">
        <ele>1280</ele>
        <time>2022-03-27T14:19:16Z</time>
      </trkpt>
      <trkpt lat="46.11789" lon="6.755">
        <ele>1277</ele>
        <time>2022-03-27T14:19:23Z</time>
      </trkpt>
      <trkpt lat="46.11782" lon="6.75489">
        <ele>1275</ele>
        <time>2022-03-27T14:19:32Z</time>
      </trkpt>
      <trkpt lat="46.11773" lon="6.75478">
        <ele>1272</ele>
        <time>2022-03-27T14:19:43Z</time>
      </trkpt>
      <trkpt lat="46.11769" lon="6.75487">
        <ele>1269</ele>
        <time>2022-03-27T14:19:58Z</time>
      </trkpt>
      <trkpt lat="46.11773" lon="6.75502">
        <ele>1266</ele>
        <time>2022-03-27T14:20:09Z</time>
      </trkpt>
      <trkpt lat="46.11779" lon="6.75533">
        <ele>1252</ele>
        <time>2022-03-27T14:20:32Z</time>
      </trkpt>
      <trkpt lat="46.11778" lon="6.75547">
        <ele>1249</ele>
        <time>2022-03-27T14:20:43Z</time>
      </trkpt>
      <trkpt lat="46.11771" lon="6.75578">
        <ele>1245</ele>
        <time>2022-03-27T14:21:09Z</time>
      </trkpt>
      <trkpt lat="46.11763" lon="6.75589">
        <ele>1243</ele>
        <time>2022-03-27T14:21:25Z</time>
      </trkpt>
      <trkpt lat="46.11745" lon="6.75598">
        <ele>1242</ele>
        <time>2022-03-27T14:21:32Z</time>
      </trkpt>
      <trkpt lat="46.11741" lon="6.75606">
        <ele>1242</ele>
        <time>2022-03-27T14:21:42Z</time>
      </trkpt>
      <trkpt lat="46.11738" lon="6.75616">
        <ele>1242</ele>
        <time>2022-03-27T14:21:50Z</time>
      </trkpt>
      <trkpt lat="46.11727" lon="6.75626">
        <ele>1242</ele>
        <time>2022-03-27T14:21:58Z</time>
      </trkpt>
      <trkpt lat="46.1172" lon="6.75629">
        <ele>1242</ele>
        <time>2022-03-27T14:22:03Z</time>
      </trkpt>
      <trkpt lat="46.11714" lon="6.75642">
        <ele>1241</ele>
        <time>2022-03-27T14:22:13Z</time>
      </trkpt>
      <trkpt lat="46.11708" lon="6.75655">
        <ele>1239</ele>
        <time>2022-03-27T14:22:21Z</time>
      </trkpt>
      <trkpt lat="46.11705" lon="6.75666">
        <ele>1238</ele>
        <time>2022-03-27T14:22:34Z</time>
      </trkpt>
      <trkpt lat="46.117" lon="6.75695">
        <ele>1236</ele>
        <time>2022-03-27T14:22:57Z</time>
      </trkpt>
      <trkpt lat="46.11691" lon="6.75715">
        <ele>1233</ele>
        <time>2022-03-27T14:23:15Z</time>
      </trkpt>
      <trkpt lat="46.11683" lon="6.75725">
        <ele>1231</ele>
        <time>2022-03-27T14:23:25Z</time>
      </trkpt>
      <trkpt lat="46.11672" lon="6.75729">
        <ele>1231</ele>
        <time>2022-03-27T14:23:36Z</time>
      </trkpt>
      <trkpt lat="46.11661" lon="6.75738">
        <ele>1229</ele>
        <time>2022-03-27T14:23:55Z</time>
      </trkpt>
      <trkpt lat="46.11655" lon="6.75736">
        <ele>1226</ele>
        <time>2022-03-27T14:25:24Z</time>
      </trkpt>
      <trkpt lat="46.11647" lon="6.75723">
        <ele>1227</ele>
        <time>2022-03-27T14:25:45Z</time>
      </trkpt>
      <trkpt lat="46.11631" lon="6.75718">
        <ele>1228</ele>
        <time>2022-03-27T14:26:22Z</time>
      </trkpt>
      <trkpt lat="46.11615" lon="6.7571">
        <ele>1228</ele>
        <time>2022-03-27T14:26:29Z</time>
      </trkpt>
      <trkpt lat="46.11601" lon="6.75701">
        <ele>1227</ele>
        <time>2022-03-27T14:26:31Z</time>
      </trkpt>
      <trkpt lat="46.11589" lon="6.75693">
        <ele>1223</ele>
        <time>2022-03-27T14:26:33Z</time>
      </trkpt>
      <trkpt lat="46.11571" lon="6.75676">
        <ele>1221</ele>
        <time>2022-03-27T14:26:36Z</time>
      </trkpt>
      <trkpt lat="46.11535" lon="6.75612">
        <ele>1216</ele>
        <time>2022-03-27T14:26:45Z</time>
      </trkpt>
      <trkpt lat="46.11529" lon="6.75596">
        <ele>1215</ele>
        <time>2022-03-27T14:26:47Z</time>
      </trkpt>
      <trkpt lat="46.11538" lon="6.75571">
        <ele>1214</ele>
        <time>2022-03-27T14:26:50Z</time>
      </trkpt>
      <trkpt lat="46.11548" lon="6.75552">
        <ele>1211</ele>
        <time>2022-03-27T14:26:53Z</time>
      </trkpt>
      <trkpt lat="46.11553" lon="6.75534">
        <ele>1206</ele>
        <time>2022-03-27T14:26:56Z</time>
      </trkpt>
      <trkpt lat="46.11552" lon="6.75519">
        <ele>1203</ele>
        <time>2022-03-27T14:26:58Z</time>
      </trkpt>
      <trkpt lat="46.1155" lon="6.75504">
        <ele>1199</ele>
        <time>2022-03-27T14:27:00Z</time>
      </trkpt>
      <trkpt lat="46.1155" lon="6.75489">
        <ele>1195</ele>
        <time>2022-03-27T14:27:02Z</time>
      </trkpt>
      <trkpt lat="46.11546" lon="6.75476">
        <ele>1193</ele>
        <time>2022-03-27T14:27:04Z</time>
      </trkpt>
      <trkpt lat="46.11542" lon="6.75463">
        <ele>1189</ele>
        <time>2022-03-27T14:27:06Z</time>
      </trkpt>
      <trkpt lat="46.11529" lon="6.75444">
        <ele>1186</ele>
        <time>2022-03-27T14:27:09Z</time>
      </trkpt>
      <trkpt lat="46.1152" lon="6.75432">
        <ele>1181</ele>
        <time>2022-03-27T14:27:11Z</time>
      </trkpt>
      <trkpt lat="46.1151" lon="6.75422">
        <ele>1179</ele>
        <time>2022-03-27T14:27:13Z</time>
      </trkpt>
      <trkpt lat="46.11499" lon="6.75405">
        <ele>1177</ele>
        <time>2022-03-27T14:27:16Z</time>
      </trkpt>
      <trkpt lat="46.11491" lon="6.75392">
        <ele>1177</ele>
        <time>2022-03-27T14:27:18Z</time>
      </trkpt>
      <trkpt lat="46.11483" lon="6.75353">
        <ele>1177</ele>
        <time>2022-03-27T14:27:23Z</time>
      </trkpt>
      <trkpt lat="46.11463" lon="6.75326">
        <ele>1173</ele>
        <time>2022-03-27T14:27:27Z</time>
      </trkpt>
      <trkpt lat="46.11436" lon="6.75303">
        <ele>1173</ele>
        <time>2022-03-27T14:27:32Z</time>
      </trkpt>
      <trkpt lat="46.11421" lon="6.75305">
        <ele>1172</ele>
        <time>2022-03-27T14:27:35Z</time>
      </trkpt>
      <trkpt lat="46.11384" lon="6.75331">
        <ele>1166</ele>
        <time>2022-03-27T14:27:45Z</time>
      </trkpt>
      <trkpt lat="46.11367" lon="6.75343">
        <ele>1162</ele>
        <time>2022-03-27T14:28:19Z</time>
      </trkpt>
      <trkpt lat="46.11347" lon="6.75334">
        <ele>1161</ele>
        <time>2022-03-27T14:28:33Z</time>
      </trkpt>
      <trkpt lat="46.11337" lon="6.75327">
        <ele>1161</ele>
        <time>2022-03-27T14:28:47Z</time>
      </trkpt>
      <trkpt lat="46.11323" lon="6.75315">
        <ele>1160</ele>
        <time>2022-03-27T14:29:18Z</time>
      </trkpt>
      <trkpt lat="46.11313" lon="6.75304">
        <ele>1153</ele>
        <time>2022-03-27T14:29:21Z</time>
      </trkpt>
      <trkpt lat="46.1131" lon="6.75293">
        <ele>1150</ele>
        <time>2022-03-27T14:29:23Z</time>
      </trkpt>
      <trkpt lat="46.11309" lon="6.75281">
        <ele>1146</ele>
        <time>2022-03-27T14:29:25Z</time>
      </trkpt>
      <trkpt lat="46.11304" lon="6.75273">
        <ele>1144</ele>
        <time>2022-03-27T14:29:27Z</time>
      </trkpt>
      <trkpt lat="46.11301" lon="6.75262">
        <ele>1141</ele>
        <time>2022-03-27T14:29:29Z</time>
      </trkpt>
      <trkpt lat="46.11296" lon="6.75251">
        <ele>1139</ele>
        <time>2022-03-27T14:29:31Z</time>
      </trkpt>
      <trkpt lat="46.11291" lon="6.75239">
        <ele>1135</ele>
        <time>2022-03-27T14:29:41Z</time>
      </trkpt>
      <trkpt lat="46.11272" lon="6.7518">
        <ele>1132</ele>
        <time>2022-03-27T14:30:24Z</time>
      </trkpt>
      <trkpt lat="46.11257" lon="6.75151">
        <ele>1131</ele>
        <time>2022-03-27T14:30:50Z</time>
      </trkpt>
      <trkpt lat="46.11254" lon="6.75136">
        <ele>1131</ele>
        <time>2022-03-27T14:30:56Z</time>
      </trkpt>
      <trkpt lat="46.11234" lon="6.7509">
        <ele>1129</ele>
        <time>2022-03-27T14:31:39Z</time>
      </trkpt>
    </trkseg>
  </trk>
</gpx>